PORTS® Data Listing: 8531680 Sandy Hook, NJ

CO-OPS RAW PORTS DATA

************************      PRELIMINARY DATA      ************************** 

     THIS RAW DATA HAS NOT BEEN SUBJECT TO THE NATIONAL OCEAN SERVICE'S        
     QUALITY CONTROL OR QUALITY ASSURANCE PROCEDURES AND DOES NOT MEET         
     THE CRITERIA AND STANDARDS OF OFFICIAL NATIONAL OCEAN SERVICE             
     DATA.  IT IS RELEASED FOR LIMITED PUBLIC USE AS PRELIMINARY DATA TO       
     BE USED ONLY WITH APPROPRIATE CAUTION.                                    

************************      PRELIMINARY DATA      ************************** 


       CD   -   Calendar date
       T    -   Time
       TZ   -   Timezone
       PW   -   Predicted water level (feet above MLLW)
       OW   -   Observed water level (feet above MLLW)
       WS   -   Wind speed (knots)
       WD   -   Wind direction (degrees true)
       WG   -   Wind gust (knots)
       AT   -   Air temperature (degrees farenheit)
       WT   -   Water temperature (degrees farenheit)
       AP   -   Air pressure (millibars)
       SA   -   Salinty (PSU - Practical Salinity Units)
       SG   -   Specific gravity
       RH   -   Relative humidity
       AG   -   Air gap (feet)
       VI   -   Visibility (nautical miles)

       ** NOTE **
       A variable that has its data fields filled with "9"s, indicates that
       data was not collected for that sample period.
       **********


STATION NAME: Sandy Hook (8531680)
****************************************************************************************************
    CD       T    TZ    PW     OW    WS   WD   WG    AT    WT    AP    SA    SG     RH    AG   VI
****************************************************************************************************
2019/11/19 08:00 EST    1.25   2.90    7  251    9  41.7  44.8 1008.9 -9.9 -9.999 -99.9 -99.99 -9.99
2019/11/19 08:06 EST    1.33   2.98    4  260    8  42.1  44.8 1008.9 -9.9 -9.999 -99.9 -99.99 -9.99
2019/11/19 08:12 EST    1.41   3.03    6  264    8  43.0  44.8 1008.9 -9.9 -9.999 -99.9 -99.99 -9.99
2019/11/19 08:18 EST    1.50   3.17    8  261   11  43.2  44.8 1008.9 -9.9 -9.999 -99.9 -99.99 -9.99
2019/11/19 08:24 EST    1.60   3.28    8  260   10  43.2  44.8 1009.0 -9.9 -9.999 -99.9 -99.99 -9.99
2019/11/19 08:30 EST    1.70   3.38    6  275    9  43.2  44.8 1009.0 -9.9 -9.999 -99.9 -99.99 -9.99
2019/11/19 08:36 EST    1.80   3.47    8  280   11  43.7  44.8 1009.0 -9.9 -9.999 -99.9 -99.99 -9.99
2019/11/19 08:42 EST    1.90   3.58    9  290   11  44.1  44.8 1009.1 -9.9 -9.999 -99.9 -99.99 -9.99
2019/11/19 08:48 EST    2.01   3.70    8  288   11  44.1  44.8 1009.1 -9.9 -9.999 -99.9 -99.99 -9.99
2019/11/19 08:54 EST    2.12   3.83    9  287   12  43.9  44.8 1009.1 -9.9 -9.999 -99.9 -99.99 -9.99
2019/11/19 09:00 EST    2.23   3.93    9  285   12  44.1  44.8 1009.1 -9.9 -9.999 -99.9 -99.99 -9.99
2019/11/19 09:06 EST    2.35   4.04    9  285   11  44.1  44.8 1009.2 -9.9 -9.999 -99.9 -99.99 -9.99
2019/11/19 09:12 EST    2.46   4.15    6  278   10  44.2  44.8 1009.1 -9.9 -9.999 -99.9 -99.99 -9.99
2019/11/19 09:18 EST    2.58   4.28    8  278   10  44.6  44.8 1009.2 -9.9 -9.999 -99.9 -99.99 -9.99
2019/11/19 09:24 EST    2.69   4.38    8  279   11  44.8  45.1 1009.3 -9.9 -9.999 -99.9 -99.99 -9.99
2019/11/19 09:30 EST    2.81   4.51    7  270   11  45.0  45.3 1009.4 -9.9 -9.999 -99.9 -99.99 -9.99
2019/11/19 09:36 EST    2.92   4.59    8  275   10  44.6  45.3 1009.4 -9.9 -9.999 -99.9 -99.99 -9.99
2019/11/19 09:42 EST    3.04   4.69   10  264   12  44.6  45.3 1009.4 -9.9 -9.999 -99.9 -99.99 -9.99
2019/11/19 09:48 EST    3.15   4.81    9  266   13  44.4  45.1 1009.4 -9.9 -9.999 -99.9 -99.99 -9.99
2019/11/19 09:54 EST    3.26   4.90   10  267   13  44.6  45.1 1009.4 -9.9 -9.999 -99.9 -99.99 -9.99
2019/11/19 10:00 EST    3.37   4.99    9  274   13  44.6  45.0 1009.5 -9.9 -9.999 -99.9 -99.99 -9.99
2019/11/19 10:06 EST    3.48   5.06    8  280   11  45.0  45.0 1009.5 -9.9 -9.999 -99.9 -99.99 -9.99
2019/11/19 10:12 EST    3.58   5.12    8  280   11  45.5  45.0 1009.4 -9.9 -9.999 -99.9 -99.99 -9.99
2019/11/19 10:18 EST    3.68   5.20    9  284   13  45.9  45.0 1009.3 -9.9 -9.999 -99.9 -99.99 -9.99
2019/11/19 10:24 EST    3.78   5.25    9  283   12  45.9  45.0 1009.2 -9.9 -9.999 -99.9 -99.99 -9.99
2019/11/19 10:30 EST    3.88   5.31    8  283   11  45.9  44.8 1009.1 -9.9 -9.999 -99.9 -99.99 -9.99
2019/11/19 10:36 EST    3.97   5.35    7  276   11  46.2  44.8 1009.2 -9.9 -9.999 -99.9 -99.99 -9.99
2019/11/19 10:42 EST    4.06   5.43    8  279   11  46.0  44.8 1009.2 -9.9 -9.999 -99.9 -99.99 -9.99
2019/11/19 10:48 EST    4.14   5.48   10  291   13  46.2  45.0 1009.1 -9.9 -9.999 -99.9 -99.99 -9.99
2019/11/19 10:54 EST    4.22   5.52    9  279   14  45.7  45.0 1009.0 -9.9 -9.999 -99.9 -99.99 -9.99
2019/11/19 11:00 EST    4.30   5.57    9  279   13  46.4  45.0 1009.0 -9.9 -9.999 -99.9 -99.99 -9.99
2019/11/19 11:06 EST    4.37   5.65    7  278   13  46.2  45.0 1009.0 -9.9 -9.999 -99.9 -99.99 -9.99
2019/11/19 11:12 EST    4.44   5.69    9  278   12  46.6  45.0 1008.9 -9.9 -9.999 -99.9 -99.99 -9.99
2019/11/19 11:18 EST    4.51   5.75    8  271   13  46.6  45.0 1008.9 -9.9 -9.999 -99.9 -99.99 -9.99
2019/11/19 11:24 EST    4.57   5.80    8  273   12  46.6  45.0 1008.8 -9.9 -9.999 -99.9 -99.99 -9.99
2019/11/19 11:30 EST    4.63   5.85    8  279   11  46.4  45.0 1008.8 -9.9 -9.999 -99.9 -99.99 -9.99
2019/11/19 11:36 EST    4.68   5.85    7  277   13  46.8  45.0 1008.8 -9.9 -9.999 -99.9 -99.99 -9.99
2019/11/19 11:42 EST    4.73   5.91    9  280   14  46.9  45.0 1008.8 -9.9 -9.999 -99.9 -99.99 -9.99
2019/11/19 11:48 EST    4.78   5.92   10  280   14  46.9  45.0 1008.7 -9.9 -9.999 -99.9 -99.99 -9.99
2019/11/19 11:54 EST    4.82   5.93   10  284   14  46.9  45.0 1008.7 -9.9 -9.999 -99.9 -99.99 -9.99
2019/11/19 12:00 EST    4.86   5.98   10  287   13  46.8  45.0 1008.6 -9.9 -9.999 -99.9 -99.99 -9.99
2019/11/19 12:06 EST    4.89   5.99   10  285   13  46.8  45.0 1008.6 -9.9 -9.999 -99.9 -99.99 -9.99
2019/11/19 12:12 EST    4.92   6.00   10  293   13  46.9  45.0 1008.6 -9.9 -9.999 -99.9 -99.99 -9.99
2019/11/19 12:18 EST    4.94   6.03    8  284   12  46.8  45.0 1008.6 -9.9 -9.999 -99.9 -99.99 -9.99
2019/11/19 12:24 EST    4.96   6.07    8  278   12  47.3  45.0 1008.6 -9.9 -9.999 -99.9 -99.99 -9.99
2019/11/19 12:30 EST    4.98   6.04    9  282   12  47.3  45.0 1008.6 -9.9 -9.999 -99.9 -99.99 -9.99
2019/11/19 12:36 EST    4.98   6.07    9  295   12  47.3  45.0 1008.6 -9.9 -9.999 -99.9 -99.99 -9.99
2019/11/19 12:42 EST    4.99   6.11   10  289   12  46.8  45.0 1008.6 -9.9 -9.999 -99.9 -99.99 -9.99
2019/11/19 12:48 EST    4.99   6.10   13  297   14  47.1  45.0 1008.6 -9.9 -9.999 -99.9 -99.99 -9.99
2019/11/19 12:54 EST    4.98   6.09   12  299   14  46.9  45.0 1008.6 -9.9 -9.999 -99.9 -99.99 -9.99
2019/11/19 13:00 EST    4.96   6.09   12  289   15  46.8  45.0 1008.5 -9.9 -9.999 -99.9 -99.99 -9.99
2019/11/19 13:06 EST    4.95   6.10   13  297   15  47.3  45.1 1008.6 -9.9 -9.999 -99.9 -99.99 -9.99
2019/11/19 13:12 EST    4.92   6.08   13  297   15  46.9  45.1 1008.5 -9.9 -9.999 -99.9 -99.99 -9.99
2019/11/19 13:18 EST    4.89   6.03   13  289   15  46.9  45.1 1008.5 -9.9 -9.999 -99.9 -99.99 -9.99
2019/11/19 13:24 EST    4.85   6.00   11  284   15  47.5  45.3 1008.5 -9.9 -9.999 -99.9 -99.99 -9.99
2019/11/19 13:30 EST    4.81   5.96    7  278   12  47.8  45.1 1008.5 -9.9 -9.999 -99.9 -99.99 -9.99
2019/11/19 13:36 EST    4.76   5.94    8  277   13  48.2  45.1 1008.6 -9.9 -9.999 -99.9 -99.99 -9.99
2019/11/19 13:42 EST    4.71   5.86    8  277   14  48.4  45.1 1008.6 -9.9 -9.999 -99.9 -99.99 -9.99
2019/11/19 13:48 EST    4.65   5.81    9  277   13  47.8  45.1 1008.6 -9.9 -9.999 -99.9 -99.99 -9.99
2019/11/19 13:54 EST    4.58   5.73    8  279   14  48.2  45.1 1008.6 -9.9 -9.999 -99.9 -99.99 -9.99
2019/11/19 14:00 EST    4.51   5.68    9  277   14  48.2  45.1 1008.6 -9.9 -9.999 -99.9 -99.99 -9.99
2019/11/19 14:06 EST    4.43   5.61   11  276   14  48.2  45.1 1008.6 -9.9 -9.999 -99.9 -99.99 -9.99
2019/11/19 14:12 EST    4.35   5.50   10  274   12  47.7  45.1 1008.7 -9.9 -9.999 -99.9 -99.99 -9.99
2019/11/19 14:18 EST    4.26   5.45    9  278   13  47.7  45.1 1008.7 -9.9 -9.999 -99.9 -99.99 -9.99
2019/11/19 14:24 EST    4.17   5.39   12  266   14  47.3  45.1 1008.8 -9.9 -9.999 -99.9 -99.99 -9.99
2019/11/19 14:30 EST    4.07   5.28   10  270   14  46.9  45.1 1008.8 -9.9 -9.999 -99.9 -99.99 -9.99
2019/11/19 14:36 EST    3.97   5.22   10  272   13  47.1  45.1 1008.8 -9.9 -9.999 -99.9 -99.99 -9.99
2019/11/19 14:42 EST    3.87   5.14   11  264   14  47.3  45.1 1008.9 -9.9 -9.999 -99.9 -99.99 -9.99
2019/11/19 14:48 EST    3.76   5.07   11  263   13  47.3  45.1 1009.0 -9.9 -9.999 -99.9 -99.99 -9.99
2019/11/19 14:54 EST    3.66   4.94    9  269   13  47.7  45.1 1009.1 -9.9 -9.999 -99.9 -99.99 -9.99
2019/11/19 15:00 EST    3.54   4.88   11  269   14  47.5  45.1 1009.0 -9.9 -9.999 -99.9 -99.99 -9.99
2019/11/19 15:06 EST    3.43   4.77   11  266   14  47.3  45.1 1009.2 -9.9 -9.999 -99.9 -99.99 -9.99
2019/11/19 15:12 EST    3.32   4.68   11  265   13  47.3  45.1 1009.2 -9.9 -9.999 -99.9 -99.99 -9.99
2019/11/19 15:18 EST    3.21   4.56   13  266   14  46.9  45.3 1009.4 -9.9 -9.999 -99.9 -99.99 -9.99
2019/11/19 15:24 EST    3.09   4.45   10  268   14  46.9  45.3 1009.5 -9.9 -9.999 -99.9 -99.99 -9.99
2019/11/19 15:30 EST    2.98   4.33   11  265   14  46.6  45.5 1009.4 -9.9 -9.999 -99.9 -99.99 -9.99
2019/11/19 15:36 EST    2.86   4.23   11  265   14  46.6  45.5 1009.5 -9.9 -9.999 -99.9 -99.99 -9.99
2019/11/19 15:42 EST    2.75   4.11   12  270   15  46.6  45.5 1009.5 -9.9 -9.999 -99.9 -99.99 -9.99
2019/11/19 15:48 EST    2.64   4.02   10  273   14  46.4  45.5 1009.6 -9.9 -9.999 -99.9 -99.99 -9.99
2019/11/19 15:54 EST    2.53   3.89    9  278   13  46.4  45.5 1009.7 -9.9 -9.999 -99.9 -99.99 -9.99
2019/11/19 16:00 EST    2.42   3.79   11  279   14  46.4  45.5 1009.7 -9.9 -9.999 -99.9 -99.99 -9.99
2019/11/19 16:06 EST    2.32   3.68   11  280   15  46.4  45.5 1009.6 -9.9 -9.999 -99.9 -99.99 -9.99
2019/11/19 16:12 EST    2.22   3.58   11  285   14  46.4  45.5 1009.5 -9.9 -9.999 -99.9 -99.99 -9.99
2019/11/19 16:18 EST    2.12   3.46   11  283   15  46.2  45.5 1009.5 -9.9 -9.999 -99.9 -99.99 -9.99
2019/11/19 16:24 EST    2.02   3.38   11  282   15  46.4  45.5 1009.6 -9.9 -9.999 -99.9 -99.99 -9.99
2019/11/19 16:30 EST    1.92   3.28   11  283   14  46.2  45.5 1009.7 -9.9 -9.999 -99.9 -99.99 -9.99
2019/11/19 16:36 EST    1.83   3.18   10  280   13  46.2  45.5 1009.7 -9.9 -9.999 -99.9 -99.99 -9.99
2019/11/19 16:42 EST    1.74   3.06    8  281   14  46.0  45.5 1009.7 -9.9 -9.999 -99.9 -99.99 -9.99
2019/11/19 16:48 EST    1.66   2.98    9  280   13  46.2  45.5 1009.8 -9.9 -9.999 -99.9 -99.99 -9.99
2019/11/19 16:54 EST    1.57   2.89   10  287   13  46.2  45.5 1009.9 -9.9 -9.999 -99.9 -99.99 -9.99
2019/11/19 17:00 EST    1.49   2.78    9  281   12  46.2  45.5 1009.9 -9.9 -9.999 -99.9 -99.99 -9.99
2019/11/19 17:06 EST    1.42   2.71   11  301   12  46.2  45.5 1010.1 -9.9 -9.999 -99.9 -99.99 -9.99
2019/11/19 17:12 EST    1.34   2.58    9  287   11  46.4  45.5 1010.1 -9.9 -9.999 -99.9 -99.99 -9.99
2019/11/19 17:18 EST    1.27   2.51    8  283   11  46.4  45.5 1010.3 -9.9 -9.999 -99.9 -99.99 -9.99
2019/11/19 17:24 EST    1.20   2.39    6  317   10  46.2  45.5 1010.4 -9.9 -9.999 -99.9 -99.99 -9.99
2019/11/19 17:30 EST    1.13   2.32    7  317    9  46.6  45.5 1010.6 -9.9 -9.999 -99.9 -99.99 -9.99
2019/11/19 17:36 EST    1.07   2.24    6  332    9  46.8  45.5 1010.8 -9.9 -9.999 -99.9 -99.99 -9.99
2019/11/19 17:42 EST    1.01   2.13    6  324    9  46.8  45.5 1010.8 -9.9 -9.999 -99.9 -99.99 -9.99
2019/11/19 17:48 EST    0.95   2.04    5  337   10  46.6  45.5 1011.0 -9.9 -9.999 -99.9 -99.99 -9.99
2019/11/19 17:54 EST    0.89   1.99    7  331   10  46.6  45.5 1011.0 -9.9 -9.999 -99.9 -99.99 -9.99
2019/11/19 18:00 EST    0.83   1.94    6  329    8  46.8  45.5 1011.1 -9.9 -9.999 -99.9 -99.99 -9.99
2019/11/19 18:06 EST    0.78   1.87    5  339    7  46.6  45.5 1011.2 -9.9 -9.999 -99.9 -99.99 -9.99
2019/11/19 18:12 EST    0.73   1.79    4  356    8  46.6  45.5 1011.3 -9.9 -9.999 -99.9 -99.99 -9.99
2019/11/19 18:18 EST    0.68   1.75    6    3   10  46.4  45.5 1011.3 -9.9 -9.999 -99.9 -99.99 -9.99
2019/11/19 18:24 EST    0.63   1.72    7    2   10  46.4  45.5 1011.2 -9.9 -9.999 -99.9 -99.99 -9.99
2019/11/19 18:30 EST    0.58   1.65    6  357    9  46.4  45.5 1011.1 -9.9 -9.999 -99.9 -99.99 -9.99
2019/11/19 18:36 EST    0.54   1.60    7  359   12  46.2  45.5 1011.0 -9.9 -9.999 -99.9 -99.99 -9.99
2019/11/19 18:42 EST    0.50   1.56    8    7   12  46.2  45.5 1011.0 -9.9 -9.999 -99.9 -99.99 -9.99
2019/11/19 18:48 EST    0.47   1.49    8    1   12  46.0  45.5 1011.0 -9.9 -9.999 -99.9 -99.99 -9.99
2019/11/19 18:54 EST    0.43   1.43    7    7   11  46.0  45.5 1011.1 -9.9 -9.999 -99.9 -99.99 -9.99
2019/11/19 19:00 EST    0.40   1.41    4    5    7  45.9  45.5 1011.1 -9.9 -9.999 -99.9 -99.99 -9.99
2019/11/19 19:06 EST    0.38   1.38    5  358    7  45.9  45.5 1011.3 -9.9 -9.999 -99.9 -99.99 -9.99
2019/11/19 19:12 EST    0.36   1.34    5  358    7  45.9  45.5 1011.3 -9.9 -9.999 -99.9 -99.99 -9.99
2019/11/19 19:18 EST    0.34   1.33    5    4    7  45.9  45.5 1011.5 -9.9 -9.999 -99.9 -99.99 -9.99
2019/11/19 19:24 EST    0.33   1.30    5    1    9  45.9  45.5 1011.6 -9.9 -9.999 -99.9 -99.99 -9.99
2019/11/19 19:30 EST    0.32   1.29    6    7    8  45.9  45.5 1011.7 -9.9 -9.999 -99.9 -99.99 -9.99
2019/11/19 19:36 EST    0.32   1.32    5    2    7  45.7  45.5 1011.8 -9.9 -9.999 -99.9 -99.99 -9.99
2019/11/19 19:42 EST    0.32   1.34    5  356    8  45.7  45.5 1011.8 -9.9 -9.999 -99.9 -99.99 -9.99
2019/11/19 19:48 EST    0.33   1.35    4  351    8  45.7  45.5 1011.8 -9.9 -9.999 -99.9 -99.99 -9.99
2019/11/19 19:54 EST    0.34   1.36    5  352    7  45.7  45.5 1011.8 -9.9 -9.999 -99.9 -99.99 -9.99
2019/11/19 20:00 EST    0.36   1.43    4  352    6  45.5  45.5 1011.7 -9.9 -9.999 -99.9 -99.99 -9.99
2019/11/19 20:06 EST    0.39   1.46    5    4    8  45.5  45.5 1011.7 -9.9 -9.999 -99.9 -99.99 -9.99
2019/11/19 20:12 EST    0.42   1.49    5    5    8  45.7  45.5 1011.8 -9.9 -9.999 -99.9 -99.99 -9.99
2019/11/19 20:18 EST    0.46   1.54    5  348    9  45.7  45.5 1011.7 -9.9 -9.999 -99.9 -99.99 -9.99
2019/11/19 20:24 EST    0.50   1.57    7  355   10  45.7  45.5 1011.7 -9.9 -9.999 -99.9 -99.99 -9.99
2019/11/19 20:30 EST    0.55   1.60    8  347   11  45.7  45.5 1011.8 -9.9 -9.999 -99.9 -99.99 -9.99
2019/11/19 20:36 EST    0.60   1.64    6  351    9  45.5  45.5 1011.7 -9.9 -9.999 -99.9 -99.99 -9.99
2019/11/19 20:42 EST    0.66   1.69    7  355   11  45.5  45.5 1011.7 -9.9 -9.999 -99.9 -99.99 -9.99
2019/11/19 20:48 EST    0.73   1.75    7  349   11  45.5  45.5 1011.7 -9.9 -9.999 -99.9 -99.99 -9.99
2019/11/19 20:54 EST    0.80   1.82    7  343   12  45.5  45.5 1011.9 -9.9 -9.999 -99.9 -99.99 -9.99
2019/11/19 21:00 EST    0.88   1.91    6  353   11  45.3  45.5 1011.9 -9.9 -9.999 -99.9 -99.99 -9.99
2019/11/19 21:06 EST    0.96   2.01    6  347   10  45.3  45.5 1011.9 -9.9 -9.999 -99.9 -99.99 -9.99
2019/11/19 21:12 EST    1.04   2.13    5    1   10  45.1  45.5 1011.9 -9.9 -9.999 -99.9 -99.99 -9.99
2019/11/19 21:18 EST    1.13   2.19    8  360   13  45.1  45.5 1012.0 -9.9 -9.999 -99.9 -99.99 -9.99
2019/11/19 21:24 EST    1.22   2.29    7    8   12  45.0  45.5 1012.0 -9.9 -9.999 -99.9 -99.99 -9.99
2019/11/19 21:30 EST    1.32   2.43    8    0   12  44.8  45.5 1012.0 -9.9 -9.999 -99.9 -99.99 -9.99
2019/11/19 21:36 EST    1.42   2.54    9  349   14  44.8  45.5 1012.1 -9.9 -9.999 -99.9 -99.99 -9.99
2019/11/19 21:42 EST    1.52   2.59    7  355   12  44.8  45.5 1012.1 -9.9 -9.999 -99.9 -99.99 -9.99
2019/11/19 21:48 EST    1.62   2.70    8  353   14  44.8  45.5 1012.1 -9.9 -9.999 -99.9 -99.99 -9.99
2019/11/19 21:54 EST    1.73   2.82    7  355   12  44.6  45.7 1012.1 -9.9 -9.999 -99.9 -99.99 -9.99
2019/11/19 22:00 EST    1.83   2.89    7  356   13  44.4  45.7 1012.0 -9.9 -9.999 -99.9 -99.99 -9.99
2019/11/19 22:06 EST    1.94   3.00    8    2   13  44.4  45.9 1012.0 -9.9 -9.999 -99.9 -99.99 -9.99
2019/11/19 22:12 EST    2.05   3.10    8    5   12  44.4  46.4 1011.9 -9.9 -9.999 -99.9 -99.99 -9.99
2019/11/19 22:18 EST    2.15   3.20    7  358   12  44.2  46.6 1011.8 -9.9 -9.999 -99.9 -99.99 -9.99
2019/11/19 22:24 EST    2.26   3.31    7  352   12  44.2  46.6 1011.8 -9.9 -9.999 -99.9 -99.99 -9.99
2019/11/19 22:30 EST    2.37   3.39   11  349   16  44.2  46.4 1011.8 -9.9 -9.999 -99.9 -99.99 -9.99
2019/11/19 22:36 EST    2.47   3.47    8  357   18  44.1  45.9 1011.8 -9.9 -9.999 -99.9 -99.99 -9.99
2019/11/19 22:42 EST    2.58   3.56    9  358   13  44.1  45.7 1011.6 -9.9 -9.999 -99.9 -99.99 -9.99
2019/11/19 22:48 EST    2.68   3.64    9  348   13  44.1  45.7 1011.6 -9.9 -9.999 -99.9 -99.99 -9.99
2019/11/19 22:54 EST    2.79   3.74    8  344   13  43.9  45.5 1011.6 -9.9 -9.999 -99.9 -99.99 -9.99
2019/11/19 23:00 EST    2.89   3.84    7  342   12  43.9  45.5 1011.6 -9.9 -9.999 -99.9 -99.99 -9.99
2019/11/19 23:06 EST    2.99   3.91   11  334   14  43.7  45.5 1011.6 -9.9 -9.999 -99.9 -99.99 -9.99
2019/11/19 23:12 EST    3.08   3.95    9  336   13  43.7  45.5 1011.6 -9.9 -9.999 -99.9 -99.99 -9.99
2019/11/19 23:18 EST    3.18   4.09    9  339   11  43.7  45.5 1011.6 -9.9 -9.999 -99.9 -99.99 -9.99
2019/11/19 23:24 EST    3.27   4.19    8  341   12  43.5  45.5 1011.5 -9.9 -9.999 -99.9 -99.99 -9.99
2019/11/19 23:30 EST    3.36   4.25   10  340   13  43.3  45.5 1011.4 -9.9 -9.999 -99.9 -99.99 -9.99
2019/11/19 23:36 EST    3.45   4.31    8  340   13  43.3  45.9 1011.3 -9.9 -9.999 -99.9 -99.99 -9.99
2019/11/19 23:42 EST    3.53   4.42   11  343   15  43.3  45.9 1011.3 -9.9 -9.999 -99.9 -99.99 -9.99
2019/11/19 23:48 EST    3.61   4.47    9  340   13  43.2  45.9 1011.4 -9.9 -9.999 -99.9 -99.99 -9.99
2019/11/19 23:54 EST    3.69   4.57    7  347   13  43.2  45.9 1011.3 -9.9 -9.999 -99.9 -99.99 -9.99
2019/11/20 00:00 EST    3.77   4.65    7  356   11  43.2  45.9 1011.3 -9.9 -9.999 -99.9 -99.99 -9.99
2019/11/20 00:06 EST    3.84   4.72    8  347   14  43.2  45.9 1011.3 -9.9 -9.999 -99.9 -99.99 -9.99
2019/11/20 00:12 EST    3.91   4.76    8  338   14  43.2  46.0 1011.3 -9.9 -9.999 -99.9 -99.99 -9.99
2019/11/20 00:18 EST    3.97   4.86    9  344   12  43.0  46.0 1011.3 -9.9 -9.999 -99.9 -99.99 -9.99
2019/11/20 00:24 EST    4.04   4.91    8  348   14  43.0  46.0 1011.0 -9.9 -9.999 -99.9 -99.99 -9.99
2019/11/20 00:30 EST    4.09   4.97    7  347   13  43.0  46.0 1011.0 -9.9 -9.999 -99.9 -99.99 -9.99
2019/11/20 00:36 EST    4.15   5.02    8  348   12  43.0  46.0 1011.1 -9.9 -9.999 -99.9 -99.99 -9.99
2019/11/20 00:42 EST    4.20   5.05    8  357   12  43.0  46.0 1011.1 -9.9 -9.999 -99.9 -99.99 -9.99
2019/11/20 00:48 EST    4.24   5.13    7  356   12  43.0  46.2 1011.2 -9.9 -9.999 -99.9 -99.99 -9.99
2019/11/20 00:54 EST    4.28   5.12    8  350   12  43.2  46.2 1011.2 -9.9 -9.999 -99.9 -99.99 -9.99
2019/11/20 01:00 EST    4.32   5.14    8  349   13  43.2  46.2 1011.1 -9.9 -9.999 -99.9 -99.99 -9.99
2019/11/20 01:06 EST    4.35   5.17    8  347   12  43.2  46.2 1011.2 -9.9 -9.999 -99.9 -99.99 -9.99
2019/11/20 01:12 EST    4.37   5.17    9  343   13  43.2  46.4 1011.3 -9.9 -9.999 -99.9 -99.99 -9.99
2019/11/20 01:18 EST    4.39   5.20    6  349   12  43.2  46.4 1011.4 -9.9 -9.999 -99.9 -99.99 -9.99
2019/11/20 01:24 EST    4.41   5.19    8  344   13  43.2  46.4 1011.4 -9.9 -9.999 -99.9 -99.99 -9.99
2019/11/20 01:30 EST    4.42   5.21    9  356   13  43.0  46.4 1011.4 -9.9 -9.999 -99.9 -99.99 -9.99
2019/11/20 01:36 EST    4.42   5.23   10  341   13  43.2  46.4 1011.4 -9.9 -9.999 -99.9 -99.99 -9.99
2019/11/20 01:42 EST    4.41   5.21    8  351   13  43.0  46.6 1011.4 -9.9 -9.999 -99.9 -99.99 -9.99
2019/11/20 01:48 EST    4.40   5.20    7  360   12  43.0  46.6 1011.4 -9.9 -9.999 -99.9 -99.99 -9.99
2019/11/20 01:54 EST    4.39   5.21    8  347   11  43.2  46.6 1011.4 -9.9 -9.999 -99.9 -99.99 -9.99
2019/11/20 02:00 EST    4.36   5.19    6  354    9  43.0  46.6 1011.4 -9.9 -9.999 -99.9 -99.99 -9.99
2019/11/20 02:06 EST    4.33   5.12    5   10   11  43.0  46.8 1011.5 -9.9 -9.999 -99.9 -99.99 -9.99
2019/11/20 02:12 EST    4.30   5.07    5    2   10  43.0  46.8 1011.5 -9.9 -9.999 -99.9 -99.99 -9.99
2019/11/20 02:18 EST    4.25   5.04    7  353   11  43.0  46.8 1011.5 -9.9 -9.999 -99.9 -99.99 -9.99
2019/11/20 02:24 EST    4.21   4.97    6  346   10  43.0  46.8 1011.6 -9.9 -9.999 -99.9 -99.99 -9.99
2019/11/20 02:30 EST    4.15   4.92    4  358    9  43.0  46.9 1011.5 -9.9 -9.999 -99.9 -99.99 -9.99
2019/11/20 02:36 EST    4.09   4.87    5  359    9  43.0  46.9 1011.5 -9.9 -9.999 -99.9 -99.99 -9.99
2019/11/20 02:42 EST    4.03   4.77    5  357   10  43.0  46.9 1011.5 -9.9 -9.999 -99.9 -99.99 -9.99
2019/11/20 02:48 EST    3.96   4.72    7  341   10  43.0  46.9 1011.5 -9.9 -9.999 -99.9 -99.99 -9.99
2019/11/20 02:54 EST    3.88   4.69    7  346    8  43.0  46.9 1011.6 -9.9 -9.999 -99.9 -99.99 -9.99
2019/11/20 03:00 EST    3.80   4.60    6  353   10  43.0  46.9 1011.6 -9.9 -9.999 -99.9 -99.99 -9.99
2019/11/20 03:06 EST    3.72   4.55    5  344    9  43.0  46.9 1011.6 -9.9 -9.999 -99.9 -99.99 -9.99
2019/11/20 03:12 EST    3.63   4.48    8  347   12  42.8  46.9 1011.6 -9.9 -9.999 -99.9 -99.99 -9.99
2019/11/20 03:18 EST    3.54   4.36   10  342   12  42.8  47.1 1011.5 -9.9 -9.999 -99.9 -99.99 -9.99
2019/11/20 03:24 EST    3.45   4.31   10  341   12  42.6  46.9 1011.4 -9.9 -9.999 -99.9 -99.99 -9.99
2019/11/20 03:30 EST    3.35   4.22    8  342   13  42.6  47.1 1011.4 -9.9 -9.999 -99.9 -99.99 -9.99
2019/11/20 03:36 EST    3.25   4.06   10  333   12  42.4  47.1 1011.5 -9.9 -9.999 -99.9 -99.99 -9.99
2019/11/20 03:42 EST    3.15   3.97    9  343   13  42.4  47.1 1011.6 -9.9 -9.999 -99.9 -99.99 -9.99
2019/11/20 03:48 EST    3.05   3.84   10  340   13  42.3  47.1 1011.6 -9.9 -9.999 -99.9 -99.99 -9.99
2019/11/20 03:54 EST    2.95   3.71    9  343   13  42.3  47.1 1011.7 -9.9 -9.999 -99.9 -99.99 -9.99
2019/11/20 04:00 EST    2.85   3.61   10  340   13  42.3  47.1 1011.7 -9.9 -9.999 -99.9 -99.99 -9.99
2019/11/20 04:06 EST    2.75   3.46   11  338   14  42.3  46.9 1011.7 -9.9 -9.999 -99.9 -99.99 -9.99
2019/11/20 04:12 EST    2.65   3.35   10  343   14  42.3  46.9 1011.7 -9.9 -9.999 -99.9 -99.99 -9.99
2019/11/20 04:18 EST    2.56   3.31   11  339   14  42.3  46.9 1011.8 -9.9 -9.999 -99.9 -99.99 -9.99
2019/11/20 04:24 EST    2.46   3.19   10  338   16  42.1  46.8 1011.8 -9.9 -9.999 -99.9 -99.99 -9.99
2019/11/20 04:30 EST    2.36   3.12    8  336   15  42.3  46.6 1011.9 -9.9 -9.999 -99.9 -99.99 -9.99
2019/11/20 04:36 EST    2.27   3.02   10  335   12  42.3  46.6 1011.9 -9.9 -9.999 -99.9 -99.99 -9.99
2019/11/20 04:42 EST    2.18   2.97    8  339   15  42.1  46.6 1012.0 -9.9 -9.999 -99.9 -99.99 -9.99
2019/11/20 04:48 EST    2.09   2.88    8  326   11  42.1  46.6 1012.0 -9.9 -9.999 -99.9 -99.99 -9.99
2019/11/20 04:54 EST    2.01   2.81    7  330   12  42.1  46.4 1012.1 -9.9 -9.999 -99.9 -99.99 -9.99
2019/11/20 05:00 EST    1.92   2.73    9  331   12  42.1  46.4 1012.1 -9.9 -9.999 -99.9 -99.99 -9.99
2019/11/20 05:06 EST    1.84   2.63   11  325   13  41.9  46.2 1012.2 -9.9 -9.999 -99.9 -99.99 -9.99
2019/11/20 05:12 EST    1.76   2.54   10  327   13  41.9  45.9 1012.3 -9.9 -9.999 -99.9 -99.99 -9.99
2019/11/20 05:18 EST    1.69   2.51   10  328   13  41.9  45.9 1012.3 -9.9 -9.999 -99.9 -99.99 -9.99
2019/11/20 05:24 EST    1.61   2.40    9  332   12  41.7  46.0 1012.4 -9.9 -9.999 -99.9 -99.99 -9.99
2019/11/20 05:30 EST    1.54   2.32    8  336   12  41.7  45.9 1012.5 -9.9 -9.999 -99.9 -99.99 -9.99
2019/11/20 05:36 EST    1.47   2.24    9  338   12  41.7  45.7 1012.6 -9.9 -9.999 -99.9 -99.99 -9.99
2019/11/20 05:42 EST    1.41   2.13   10  333   14  41.7  45.7 1012.5 -9.9 -9.999 -99.9 -99.99 -9.99
2019/11/20 05:48 EST    1.35   2.07   11  334   15  41.7  45.7 1012.5 -9.9 -9.999 -99.9 -99.99 -9.99
2019/11/20 05:54 EST    1.28   1.99    8  337   13  41.7  45.5 1012.6 -9.9 -9.999 -99.9 -99.99 -9.99
2019/11/20 06:00 EST    1.23   1.92   10  334   12  41.7  45.5 1012.7 -9.9 -9.999 -99.9 -99.99 -9.99
2019/11/20 06:06 EST    1.17   1.87   10  333   14  41.5  45.5 1012.7 -9.9 -9.999 -99.9 -99.99 -9.99
2019/11/20 06:12 EST    1.12   1.79    9  331   12  41.5  45.9 1012.7 -9.9 -9.999 -99.9 -99.99 -9.99
2019/11/20 06:18 EST    1.06   1.71   10  330   13  41.7  45.9 1012.8 -9.9 -9.999 -99.9 -99.99 -9.99
2019/11/20 06:24 EST    1.01   1.66   10  332   15  41.7  46.0 1012.9 -9.9 -9.999 -99.9 -99.99 -9.99
2019/11/20 06:30 EST    0.97   1.61    9  340   15  41.5  46.2 1012.9 -9.9 -9.999 -99.9 -99.99 -9.99
2019/11/20 06:36 EST    0.92   1.55    9  329   15  41.4  46.4 1013.0 -9.9 -9.999 -99.9 -99.99 -9.99
2019/11/20 06:42 EST    0.88   1.51   11  330   14  41.5  46.4 1013.1 -9.9 -9.999 -99.9 -99.99 -9.99
2019/11/20 06:48 EST    0.84   1.45   12  328   15  41.5  46.2 1013.1 -9.9 -9.999 -99.9 -99.99 -9.99
2019/11/20 06:54 EST    0.80   1.39   12  331   15  41.2  46.4 1013.3 -9.9 -9.999 -99.9 -99.99 -9.99
2019/11/20 07:00 EST    0.77   1.35   12  329   15  41.2  46.4 1013.3 -9.9 -9.999 -99.9 -99.99 -9.99
2019/11/20 07:06 EST    0.74   1.33   12  329   17  41.2  46.2 1013.4 -9.9 -9.999 -99.9 -99.99 -9.99
2019/11/20 07:12 EST    0.71   1.29   10  330   13  41.2  46.2 1013.5 -9.9 -9.999 -99.9 -99.99 -9.99
2019/11/20 07:18 EST    0.68   1.23   14  321   17  41.0  46.2 1013.6 -9.9 -9.999 -99.9 -99.99 -9.99
2019/11/20 07:24 EST    0.66   1.19   11  328   15  41.0  46.2 1013.7 -9.9 -9.999 -99.9 -99.99 -9.99
2019/11/20 07:30 EST    0.65   1.18    9  329   16  41.0  46.4 1013.9 -9.9 -9.999 -99.9 -99.99 -9.99
2019/11/20 07:36 EST    0.64   1.18   13  325   15  41.0  46.4 1013.9 -9.9 -9.999 -99.9 -99.99 -9.99
2019/11/20 07:42 EST    0.63   1.17   11  325   14  41.0  46.6 1013.9 -9.9 -9.999 -99.9 -99.99 -9.99
2019/11/20 07:48 EST    0.63   1.16   10  334   14  41.0  46.6 1013.9 -9.9 -9.999 -99.9 -99.99 -9.99
2019/11/20 07:54 EST    0.63   1.18   11  338   14  41.0  46.6 1014.0 -9.9 -9.999 -99.9 -99.99 -9.99
2019/11/20 08:00 EST    0.64   1.21    9  332   15  41.0  46.6 1014.0 -9.9 -9.999 -99.9 -99.99 -9.99
2019/11/20 08:06 EST    0.65   1.22   10  342   14  41.0  46.6 1014.0 -9.9 -9.999 -99.9 -99.99 -9.99
2019/11/20 08:12 EST    0.67   1.28   10  336   14  41.0  46.8 1014.0 -9.9 -9.999 -99.9 -99.99 -9.99
2019/11/20 08:18 EST    0.70   1.33   11  338   15  41.0  46.8 1014.0 -9.9 -9.999 -99.9 -99.99 -9.99
2019/11/20 08:24 EST    0.73   1.38   11  333   15  41.0  46.9 1014.0 -9.9 -9.999 -99.9 -99.99 -9.99
2019/11/20 08:30 EST    0.76   1.42   12  325   16  41.0  46.9 1014.0 -9.9 -9.999 -99.9 -99.99 -9.99
2019/11/20 08:36 EST    0.81   1.47   13  329   16  41.0  46.8 1014.1 -9.9 -9.999 -99.9 -99.99 -9.99
2019/11/20 08:42 EST    0.86   1.57   12  338   15  41.0  46.8 1014.1 -9.9 -9.999 -99.9 -99.99 -9.99
2019/11/20 08:48 EST    0.92   1.63   11  335   16  41.0  46.8 1014.2 -9.9 -9.999 -99.9 -99.99 -9.99
2019/11/20 08:54 EST    0.98   1.67   12  331   15  41.2  46.9 1014.2 -9.9 -9.999 -99.9 -99.99 -9.99
2019/11/20 09:00 EST    1.05   1.74   11  338   17  41.2  46.8 1014.3 -9.9 -9.999 -99.9 -99.99 -9.99
2019/11/20 09:06 EST    1.12   1.88   11  331   18  41.4  46.8 1014.3 -9.9 -9.999 -99.9 -99.99 -9.99
2019/11/20 09:12 EST    1.20   1.93   14  328   19  41.4  46.9 1014.3 -9.9 -9.999 -99.9 -99.99 -9.99
2019/11/20 09:18 EST    1.29   2.01   12  332   19  41.2  46.9 1014.5 -9.9 -9.999 -99.9 -99.99 -9.99
2019/11/20 09:24 EST    1.38   2.14   14  340   18  41.2  46.9 1014.5 -9.9 -9.999 -99.9 -99.99 -9.99
2019/11/20 09:30 EST    1.47   2.24   11  349   15  41.0  46.9 1014.5 -9.9 -9.999 -99.9 -99.99 -9.99
2019/11/20 09:36 EST    1.57   2.35   14  336   17  41.0  46.9 1014.5 -9.9 -9.999 -99.9 -99.99 -9.99
2019/11/20 09:42 EST    1.67   2.43   13  332   15  40.8  46.6 1014.6 -9.9 -9.999 -99.9 -99.99 -9.99
2019/11/20 09:48 EST    1.78   2.56   12  331   17  40.8  46.6 1014.6 -9.9 -9.999 -99.9 -99.99 -9.99
2019/11/20 09:54 EST    1.89   2.66   13  342   17  41.2  46.6 1014.6 -9.9 -9.999 -99.9 -99.99 -9.99
2019/11/20 10:00 EST    2.00   2.76   12  328   16  41.2  46.2 1014.5 -9.9 -9.999 -99.9 -99.99 -9.99
2019/11/20 10:06 EST    2.12   2.86   13  323   17  41.7  46.4 1014.6 -9.9 -9.999 -99.9 -99.99 -9.99
2019/11/20 10:12 EST    2.23   2.96   13  329   17  41.7  46.4 1014.6 -9.9 -9.999 -99.9 -99.99 -9.99
2019/11/20 10:18 EST    2.35   3.08   14  321   16  42.3  46.2 1014.6 -9.9 -9.999 -99.9 -99.99 -9.99
2019/11/20 10:24 EST    2.47   3.18   11  335   16  42.3  46.0 1014.6 -9.9 -9.999 -99.9 -99.99 -9.99
2019/11/20 10:30 EST    2.59   3.30   12  327   17  42.4  46.2 1014.6 -9.9 -9.999 -99.9 -99.99 -9.99
2019/11/20 10:36 EST    2.70   3.43   14  325   16  42.3  46.4 1014.5 -9.9 -9.999 -99.9 -99.99 -9.99
2019/11/20 10:42 EST    2.82   3.54   14  327   17  42.4  46.4 1014.5 -9.9 -9.999 -99.9 -99.99 -9.99
2019/11/20 10:48 EST    2.94   3.63   13  338   17  43.2  46.4 1014.4 -9.9 -9.999 -99.9 -99.99 -9.99
2019/11/20 10:54 EST    3.05   3.78   12  336   18  43.3  46.4 1014.4 -9.9 -9.999 -99.9 -99.99 -9.99
2019/11/20 11:00 EST    3.17   3.86   14  346   18  44.2  46.4 1014.3 -9.9 -9.999 -99.9 -99.99 -9.99
2019/11/20 11:06 EST    3.28   3.94   14  351   18  44.2  46.4 1014.4 -9.9 -9.999 -99.9 -99.99 -9.99
2019/11/20 11:12 EST    3.39   4.03   14  337   18  44.1  46.4 1014.4 -9.9 -9.999 -99.9 -99.99 -9.99
2019/11/20 11:18 EST    3.50   4.14    9  350   19  43.5  46.4 1014.4 -9.9 -9.999 -99.9 -99.99 -9.99
2019/11/20 11:24 EST    3.60   4.22   12  344   17  44.6  46.4 1014.4 -9.9 -9.999 -99.9 -99.99 -9.99
2019/11/20 11:30 EST    3.71   4.34   15  341   20  44.6  46.4 1014.3 -9.9 -9.999 -99.9 -99.99 -9.99
2019/11/20 11:36 EST    3.80   4.40   15  342   18  44.4  46.4 1014.4 -9.9 -9.999 -99.9 -99.99 -9.99
2019/11/20 11:42 EST    3.90   4.47   12  348   18  44.2  46.4 1014.4 -9.9 -9.999 -99.9 -99.99 -9.99
2019/11/20 11:48 EST    3.99   4.57   10    1   16  44.2  46.4 1014.4 -9.9 -9.999 -99.9 -99.99 -9.99
2019/11/20 11:54 EST    4.08   4.66    9  355   15  44.4  46.4 1014.4 -9.9 -9.999 -99.9 -99.99 -9.99
2019/11/20 12:00 EST    4.17   4.68   10  342   16  44.4  46.2 1014.4 -9.9 -9.999 -99.9 -99.99 -9.99
2019/11/20 12:06 EST    4.25   4.79   10  343   16  44.6  46.2 1014.5 -9.9 -9.999 -99.9 -99.99 -9.99
2019/11/20 12:12 EST    4.33   4.83   13  346   17  45.1  46.0 1014.5 -9.9 -9.999 -99.9 -99.99 -9.99
2019/11/20 12:18 EST    4.40   4.90   13  336   19  45.0  46.0 1014.5 -9.9 -9.999 -99.9 -99.99 -9.99
2019/11/20 12:24 EST    4.47   4.91   13  333   18  44.8  46.0 1014.4 -9.9 -9.999 -99.9 -99.99 -9.99
2019/11/20 12:30 EST    4.54   4.98   11  337   17  44.8  46.4 1014.5 -9.9 -9.999 -99.9 -99.99 -9.99
2019/11/20 12:36 EST    4.60   5.05   14  325   17  44.8  46.4 1014.4 -9.9 -9.999 -99.9 -99.99 -9.99
2019/11/20 12:42 EST    4.66   5.06   17  320   20  44.8  46.4 1014.4 -9.9 -9.999 -99.9 -99.99 -9.99
2019/11/20 12:48 EST    4.71   5.09   17  320   20  44.4  46.4 1014.5 -9.9 -9.999 -99.9 -99.99 -9.99
2019/11/20 12:54 EST    4.76   5.14   14  319   18  44.8  46.4 1014.5 -9.9 -9.999 -99.9 -99.99 -9.99
2019/11/20 13:00 EST    4.80   5.15   14  322   19  45.1  46.6 1014.4 -9.9 -9.999 -99.9 -99.99 -9.99
2019/11/20 13:06 EST    4.84   5.18   16  322   19  45.1  46.6 1014.4 -9.9 -9.999 -99.9 -99.99 -9.99
2019/11/20 13:12 EST    4.87   5.21   15  315   18  45.0  46.6 1014.5 -9.9 -9.999 -99.9 -99.99 -9.99
2019/11/20 13:18 EST    4.90   5.21   15  316   18  45.0  46.6 1014.5 -9.9 -9.999 -99.9 -99.99 -9.99
2019/11/20 13:24 EST    4.93   5.19   14  323   17  45.0  46.6 1014.5 -9.9 -9.999 -99.9 -99.99 -9.99
2019/11/20 13:30 EST    4.94   5.24   11  331   16  45.1  46.6 1014.5 -9.9 -9.999 -99.9 -99.99 -9.99
2019/11/20 13:36 EST    4.95   5.23   14  329   18  45.9  46.6 1014.4 -9.9 -9.999 -99.9 -99.99 -9.99
2019/11/20 13:42 EST    4.96   5.20   13  333   16  46.2  46.8 1014.4 -9.9 -9.999 -99.9 -99.99 -9.99
2019/11/20 13:48 EST    4.96   5.23   13  322   17  46.2  46.8 1014.4 -9.9 -9.999 -99.9 -99.99 -9.99
2019/11/20 13:54 EST    4.96   5.23   12  318   17  46.6  46.8 1014.5 -9.9 -9.999 -99.9 -99.99 -9.99
2019/11/20 14:00 EST    4.94   5.22   12  322   16  46.9  46.9 1014.5 -9.9 -9.999 -99.9 -99.99 -9.99
2019/11/20 14:06 EST    4.93   5.23   11  329   15  46.9  46.9 1014.5 -9.9 -9.999 -99.9 -99.99 -9.99
2019/11/20 14:12 EST    4.90   5.23   11  346   16  47.7  46.8 1014.4 -9.9 -9.999 -99.9 -99.99 -9.99
2019/11/20 14:18 EST    4.87   5.18    9  343   16  48.0  46.9 1014.3 -9.9 -9.999 -99.9 -99.99 -9.99
2019/11/20 14:24 EST    4.83   5.18    7  351   11  47.7  46.9 1014.4 -9.9 -9.999 -99.9 -99.99 -9.99
2019/11/20 14:30 EST    4.79   5.18    7  352   12  47.7  46.9 1014.4 -9.9 -9.999 -99.9 -99.99 -9.99
2019/11/20 14:36 EST    4.74   5.11    9  344   13  48.0  46.9 1014.4 -9.9 -9.999 -99.9 -99.99 -9.99
2019/11/20 14:42 EST    4.69   5.11   14  316   17  48.0  46.9 1014.5 -9.9 -9.999 -99.9 -99.99 -9.99
2019/11/20 14:48 EST    4.63   5.03   18  310   21  48.0  46.9 1014.5 -9.9 -9.999 -99.9 -99.99 -9.99
2019/11/20 14:54 EST    4.56   4.98   14  318   19  47.8  46.9 1014.5 -9.9 -9.999 -99.9 -99.99 -9.99
2019/11/20 15:00 EST    4.49   4.92   17  316   20  48.2  46.9 1014.5 -9.9 -9.999 -99.9 -99.99 -9.99
2019/11/20 15:06 EST    4.41   4.86   15  321   21  48.0  46.9 1014.6 -9.9 -9.999 -99.9 -99.99 -9.99
2019/11/20 15:12 EST    4.33   4.80   17  317   22  48.0  46.9 1014.6 -9.9 -9.999 -99.9 -99.99 -9.99
2019/11/20 15:18 EST    4.24   4.74   21  307   24  47.8  46.9 1014.7 -9.9 -9.999 -99.9 -99.99 -9.99
2019/11/20 15:24 EST    4.15   4.63   21  309   24  47.1  46.9 1014.7 -9.9 -9.999 -99.9 -99.99 -9.99
2019/11/20 15:30 EST    4.05   4.61   20  317   24  47.1  46.9 1014.8 -9.9 -9.999 -99.9 -99.99 -9.99
2019/11/20 15:36 EST    3.96   4.54   20  315   24  46.8  46.9 1014.9 -9.9 -9.999 -99.9 -99.99 -9.99
2019/11/20 15:42 EST    3.86   4.42   19  315   22  46.8  46.9 1015.1 -9.9 -9.999 -99.9 -99.99 -9.99
2019/11/20 15:48 EST    3.75   4.37   19  322   24  46.8  46.9 1015.2 -9.9 -9.999 -99.9 -99.99 -9.99
2019/11/20 15:54 EST    3.65   4.29   19  322   25  46.4  46.9 1015.3 -9.9 -9.999 -99.9 -99.99 -9.99
2019/11/20 16:00 EST    3.54   4.18   21  320   26  46.2  46.9 1015.4 -9.9 -9.999 -99.9 -99.99 -9.99
2019/11/20 16:06 EST    3.43   4.08   19  320   24  46.2  46.8 1015.5 -9.9 -9.999 -99.9 -99.99 -9.99
2019/11/20 16:12 EST    3.32   4.00   20  321   24  46.2  46.9 1015.6 -9.9 -9.999 -99.9 -99.99 -9.99
2019/11/20 16:18 EST    3.21   3.90   20  321   25  46.0  46.8 1015.7 -9.9 -9.999 -99.9 -99.99 -9.99
2019/11/20 16:24 EST    3.10   3.80   19  323   24  46.0  46.8 1015.7 -9.9 -9.999 -99.9 -99.99 -9.99
2019/11/20 16:30 EST    2.99   3.72   22  320   25  45.9  46.8 1015.8 -9.9 -9.999 -99.9 -99.99 -9.99
2019/11/20 16:36 EST    2.88   3.63   19  319   26  45.7  46.8 1015.9 -9.9 -9.999 -99.9 -99.99 -9.99
2019/11/20 16:42 EST    2.77   3.55   19  321   25  45.5  46.8 1016.0 -9.9 -9.999 -99.9 -99.99 -9.99
2019/11/20 16:48 EST    2.67   3.42   20  320   26  45.3  46.8 1016.1 -9.9 -9.999 -99.9 -99.99 -9.99
2019/11/20 16:54 EST    2.56   3.33   19  324   24  45.3  46.8 1016.2 -9.9 -9.999 -99.9 -99.99 -9.99
2019/11/20 17:00 EST    2.46   3.24   19  320   23  45.1  46.8 1016.3 -9.9 -9.999 -99.9 -99.99 -9.99
2019/11/20 17:06 EST    2.36   3.15   15  327   19  45.1  46.8 1016.4 -9.9 -9.999 -99.9 -99.99 -9.99
2019/11/20 17:12 EST    2.26   3.07   17  330   20  45.1  46.8 1016.6 -9.9 -9.999 -99.9 -99.99 -9.99
2019/11/20 17:18 EST    2.16   2.96   19  323   23  45.1  46.8 1016.6 -9.9 -9.999 -99.9 -99.99 -9.99
2019/11/20 17:24 EST    2.07   2.85   19  322   23  45.1  46.8 1016.7 -9.9 -9.999 -99.9 -99.99 -9.99
2019/11/20 17:30 EST    1.97   2.77   18  326   21  45.1  46.8 1016.8 -9.9 -9.999 -99.9 -99.99 -9.99
2019/11/20 17:36 EST    1.88   2.70   18  322   23  45.1  46.6 1016.9 -9.9 -9.999 -99.9 -99.99 -9.99
2019/11/20 17:42 EST    1.79   2.58   15  319   21  45.1  46.6 1017.0 -9.9 -9.999 -99.9 -99.99 -9.99
2019/11/20 17:48 EST    1.71   2.52   17  326   21  45.1  46.6 1017.0 -9.9 -9.999 -99.9 -99.99 -9.99
2019/11/20 17:54 EST    1.62   2.41   21  324   25  45.1  46.6 1017.1 -9.9 -9.999 -99.9 -99.99 -9.99
2019/11/20 18:00 EST    1.54   2.34   17  321   22  45.0  46.6 1017.2 -9.9 -9.999 -99.9 -99.99 -9.99
2019/11/20 18:06 EST    1.46   2.26   18  322   23  45.1  46.6 1017.3 -9.9 -9.999 -99.9 -99.99 -9.99
2019/11/20 18:12 EST    1.38   2.16   18  323   25  45.1  46.4 1017.4 -9.9 -9.999 -99.9 -99.99 -9.99
2019/11/20 18:18 EST    1.30   2.08   21  324   24  45.1  46.4 1017.4 -9.9 -9.999 -99.9 -99.99 -9.99
2019/11/20 18:24 EST    1.22   2.00   18  322   23  45.0  46.4 1017.5 -9.9 -9.999 -99.9 -99.99 -9.99
2019/11/20 18:30 EST    1.15   1.92   18  319   23  45.0  46.4 1017.5 -9.9 -9.999 -99.9 -99.99 -9.99
2019/11/20 18:36 EST    1.07   1.85   16  317   21  45.1  46.4 1017.6 -9.9 -9.999 -99.9 -99.99 -9.99
2019/11/20 18:42 EST    1.00   1.76   17  320   22  45.1  46.2 1017.7 -9.9 -9.999 -99.9 -99.99 -9.99
2019/11/20 18:48 EST    0.93   1.69   17  322   22  45.1  46.2 1017.8 -9.9 -9.999 -99.9 -99.99 -9.99
2019/11/20 18:54 EST    0.86   1.63   17  321   23  45.1  46.4 1017.8 -9.9 -9.999 -99.9 -99.99 -9.99
2019/11/20 19:00 EST    0.79   1.54   20  329   23  45.0  46.4 1017.9 -9.9 -9.999 -99.9 -99.99 -9.99
2019/11/20 19:06 EST    0.73   1.48   15  323   20  45.0  46.4 1017.9 -9.9 -9.999 -99.9 -99.99 -9.99
2019/11/20 19:12 EST    0.66   1.42   17  325   22  45.0  46.4 1018.0 -9.9 -9.999 -99.9 -99.99 -9.99
2019/11/20 19:18 EST    0.60   1.34   16  327   22  44.8  46.4 1018.1 -9.9 -9.999 -99.9 -99.99 -9.99
2019/11/20 19:24 EST    0.54   1.30   15  328   18  44.8  46.4 1018.1 -9.9 -9.999 -99.9 -99.99 -9.99
2019/11/20 19:30 EST    0.48   1.25   13  329   21  44.8  46.4 1018.1 -9.9 -9.999 -99.9 -99.99 -9.99
2019/11/20 19:36 EST    0.43   1.19   18  322   21  44.8  46.4 1018.2 -9.9 -9.999 -99.9 -99.99 -9.99
2019/11/20 19:42 EST    0.38   1.16   17  332   21  44.8  46.4 1018.3 -9.9 -9.999 -99.9 -99.99 -9.99
2019/11/20 19:48 EST    0.33   1.12   17  323   21  44.8  46.4 1018.5 -9.9 -9.999 -99.9 -99.99 -9.99
2019/11/20 19:54 EST    0.29   1.04   17  323   21  44.8  46.4 1018.6 -9.9 -9.999 -99.9 -99.99 -9.99
2019/11/20 20:00 EST    0.25   0.99   15  327   20  44.6  46.4 1018.5 -9.9 -9.999 -99.9 -99.99 -9.99
2019/11/20 20:06 EST    0.21   0.99   12  330   18  44.6  46.4 1018.5 -9.9 -9.999 -99.9 -99.99 -9.99
2019/11/20 20:12 EST    0.18   0.95   15  336   22  44.4  46.4 1018.6 -9.9 -9.999 -99.9 -99.99 -9.99
2019/11/20 20:18 EST    0.16   0.90   14  335   23  44.4  46.6 1018.7 -9.9 -9.999 -99.9 -99.99 -9.99
2019/11/20 20:24 EST    0.14   0.87   12  337   20  44.2  46.6 1018.6 -9.9 -9.999 -99.9 -99.99 -9.99
2019/11/20 20:30 EST    0.12   0.87   17  338   22  44.1  46.4 1018.7 -9.9 -9.999 -99.9 -99.99 -9.99
2019/11/20 20:36 EST    0.12   0.83   19  339   25  44.1  46.4 1018.8 -9.9 -9.999 -99.9 -99.99 -9.99
2019/11/20 20:42 EST    0.11   0.82   17  340   22  44.1  46.4 1018.7 -9.9 -9.999 -99.9 -99.99 -9.99
2019/11/20 20:48 EST    0.12   0.81   16  337   20  44.1  46.4 1018.8 -9.9 -9.999 -99.9 -99.99 -9.99
2019/11/20 20:54 EST    0.13   0.82   13  336   19  43.7  46.4 1018.9 -9.9 -9.999 -99.9 -99.99 -9.99
2019/11/20 21:00 EST    0.15   0.85   17  328   20  43.9  46.4 1019.0 -9.9 -9.999 -99.9 -99.99 -9.99
2019/11/20 21:06 EST    0.17   0.88   14  333   19  43.9  46.2 1019.1 -9.9 -9.999 -99.9 -99.99 -9.99
2019/11/20 21:12 EST    0.21   0.90   16  332   20  43.5  46.2 1019.1 -9.9 -9.999 -99.9 -99.99 -9.99
2019/11/20 21:18 EST    0.25   0.93   11  334   20  43.7  46.2 1019.1 -9.9 -9.999 -99.9 -99.99 -9.99
2019/11/20 21:24 EST    0.29   0.97   14  340   20  43.5  46.2 1019.1 -9.9 -9.999 -99.9 -99.99 -9.99
2019/11/20 21:30 EST    0.34   1.02   14  342   20  43.5  45.9 1019.1 -9.9 -9.999 -99.9 -99.99 -9.99
2019/11/20 21:36 EST    0.40   1.04   15  334   20  43.5  45.9 1019.2 -9.9 -9.999 -99.9 -99.99 -9.99
2019/11/20 21:42 EST    0.47   1.10   14  328   19  43.3  45.7 1019.3 -9.9 -9.999 -99.9 -99.99 -9.99
2019/11/20 21:48 EST    0.54   1.18   13  338   20  43.3  45.9 1019.4 -9.9 -9.999 -99.9 -99.99 -9.99
2019/11/20 21:54 EST    0.62   1.24   16  338   21  43.3  45.9 1019.4 -9.9 -9.999 -99.9 -99.99 -9.99
2019/11/20 22:00 EST    0.71   1.31   11  334   16  43.3  45.7 1019.5 -9.9 -9.999 -99.9 -99.99 -9.99
2019/11/20 22:06 EST    0.79   1.41   13  331   17  43.2  45.7 1019.5 -9.9 -9.999 -99.9 -99.99 -9.99
2019/11/20 22:12 EST    0.89   1.50   16  337   22  43.3  45.9 1019.6 -9.9 -9.999 -99.9 -99.99 -9.99
2019/11/20 22:18 EST    0.99   1.59   15  330   19  43.3  45.7 1019.7 -9.9 -9.999 -99.9 -99.99 -9.99
2019/11/20 22:24 EST    1.09   1.68   13  329   19  43.2  45.3 1019.7 -9.9 -9.999 -99.9 -99.99 -9.99
2019/11/20 22:30 EST    1.20   1.80   15  333   19  43.2  45.3 1019.7 -9.9 -9.999 -99.9 -99.99 -9.99
2019/11/20 22:36 EST    1.31   1.91   14  333   18  43.2  45.3 1019.7 -9.9 -9.999 -99.9 -99.99 -9.99
2019/11/20 22:42 EST    1.42   2.03   15  330   22  43.2  45.3 1019.6 -9.9 -9.999 -99.9 -99.99 -9.99
2019/11/20 22:48 EST    1.53   2.14   17  328   21  43.2  45.3 1019.6 -9.9 -9.999 -99.9 -99.99 -9.99
2019/11/20 22:54 EST    1.65   2.27   15  327   19  43.2  45.1 1019.6 -9.9 -9.999 -99.9 -99.99 -9.99
2019/11/20 23:00 EST    1.77   2.39   18  327   22  43.2  45.1 1019.6 -9.9 -9.999 -99.9 -99.99 -9.99
2019/11/20 23:06 EST    1.89   2.52   15  326   20  43.3  45.1 1019.7 -9.9 -9.999 -99.9 -99.99 -9.99
2019/11/20 23:12 EST    2.01   2.64   14  330   21  43.3  45.1 1019.8 -9.9 -9.999 -99.9 -99.99 -9.99
2019/11/20 23:18 EST    2.13   2.82   15  332   20  43.3  45.1 1019.8 -9.9 -9.999 -99.9 -99.99 -9.99
2019/11/20 23:24 EST    2.25   2.94   13  334   18  43.3  45.0 1019.8 -9.9 -9.999 -99.9 -99.99 -9.99
2019/11/20 23:30 EST    2.37   3.09   13  334   18  43.3  45.0 1019.9 -9.9 -9.999 -99.9 -99.99 -9.99
2019/11/20 23:36 EST    2.49   3.23   14  339   20  43.3  45.0 1019.9 -9.9 -9.999 -99.9 -99.99 -9.99
2019/11/20 23:42 EST    2.61   3.38   14  333   17  43.3  45.0 1019.9 -9.9 -9.999 -99.9 -99.99 -9.99
2019/11/20 23:48 EST    2.72   3.52   13  334   19  43.3  45.0 1020.0 -9.9 -9.999 -99.9 -99.99 -9.99
2019/11/20 23:54 EST    2.84   3.64   17  338   19  43.3  45.0 1020.0 -9.9 -9.999 -99.9 -99.99 -9.99
2019/11/21 00:00 EST    2.95   3.77   16  340   19  43.3  45.0 1020.0 -9.9 -9.999 -99.9 -99.99 -9.99
2019/11/21 00:06 EST    3.06   3.91   14  334   18  43.3  45.1 1019.9 -9.9 -9.999 -99.9 -99.99 -9.99
2019/11/21 00:12 EST    3.17   4.06   15  338   18  43.2  45.1 1019.9 -9.9 -9.999 -99.9 -99.99 -9.99
2019/11/21 00:18 EST    3.28   4.20   11  344   19  43.2  45.0 1019.9 -9.9 -9.999 -99.9 -99.99 -9.99
2019/11/21 00:24 EST    3.39   4.30   12  343   17  43.0  45.0 1020.0 -9.9 -9.999 -99.9 -99.99 -9.99
2019/11/21 00:30 EST    3.49   4.41   12  341   19  43.0  45.0 1020.0 -9.9 -9.999 -99.9 -99.99 -9.99
2019/11/21 00:36 EST    3.59   4.56   14  332   18  43.0  45.0 1020.0 -9.9 -9.999 -99.9 -99.99 -9.99
2019/11/21 00:42 EST    3.68   4.66   13  340   23  43.0  45.0 1020.0 -9.9 -9.999 -99.9 -99.99 -9.99
2019/11/21 00:48 EST    3.78   4.78   17  338   23  43.0  44.8 1020.0 -9.9 -9.999 -99.9 -99.99 -9.99
2019/11/21 00:54 EST    3.86   4.88   15  338   19  43.0  44.8 1020.1 -9.9 -9.999 -99.9 -99.99 -9.99
2019/11/21 01:00 EST    3.95   4.94   13  334   18  42.8  44.8 1020.1 -9.9 -9.999 -99.9 -99.99 -9.99
2019/11/21 01:06 EST    4.03   5.06   13  334   19  42.8  44.8 1020.1 -9.9 -9.999 -99.9 -99.99 -9.99
2019/11/21 01:12 EST    4.11   5.16   14  343   19  42.6  45.0 1020.2 -9.9 -9.999 -99.9 -99.99 -9.99
2019/11/21 01:18 EST    4.19   5.21   11  334   18  42.6  45.0 1020.2 -9.9 -9.999 -99.9 -99.99 -9.99
2019/11/21 01:24 EST    4.26   5.26   12  338   19  42.6  45.0 1020.3 -9.9 -9.999 -99.9 -99.99 -9.99
2019/11/21 01:30 EST    4.32   5.34   13  330   17  42.6  45.0 1020.4 -9.9 -9.999 -99.9 -99.99 -9.99
2019/11/21 01:36 EST    4.38   5.39   13  329   18  42.6  45.0 1020.5 -9.9 -9.999 -99.9 -99.99 -9.99
2019/11/21 01:42 EST    4.44   5.42   14  332   17  42.4  45.0 1020.5 -9.9 -9.999 -99.9 -99.99 -9.99
2019/11/21 01:48 EST    4.49   5.48   17  324   20  42.4  45.0 1020.5 -9.9 -9.999 -99.9 -99.99 -9.99
2019/11/21 01:54 EST    4.53   5.53   12  332   19  42.6  45.0 1020.5 -9.9 -9.999 -99.9 -99.99 -9.99
2019/11/21 02:00 EST    4.57   5.57   16  325   18  42.4  45.0 1020.6 -9.9 -9.999 -99.9 -99.99 -9.99
2019/11/21 02:06 EST    4.61   5.59   13  330   17  42.4  45.0 1020.7 -9.9 -9.999 -99.9 -99.99 -9.99
2019/11/21 02:12 EST    4.64   5.63   14  322   18  42.4  45.0 1020.8 -9.9 -9.999 -99.9 -99.99 -9.99
2019/11/21 02:18 EST    4.66   5.63   16  324   18  42.3  44.8 1020.9 -9.9 -9.999 -99.9 -99.99 -9.99
2019/11/21 02:24 EST    4.67   5.63   14  328   20  42.4  44.8 1021.0 -9.9 -9.999 -99.9 -99.99 -9.99
2019/11/21 02:30 EST    4.68   5.62   15  326   18  42.3  44.8 1021.0 -9.9 -9.999 -99.9 -99.99 -9.99
2019/11/21 02:36 EST    4.69   5.58   14  324   19  42.3  44.6 1021.0 -9.9 -9.999 -99.9 -99.99 -9.99
2019/11/21 02:42 EST    4.68   5.56   13  331   19  42.3  44.6 1021.1 -9.9 -9.999 -99.9 -99.99 -9.99
2019/11/21 02:48 EST    4.67   5.50   14  326   17  42.1  44.6 1021.1 -9.9 -9.999 -99.9 -99.99 -9.99
2019/11/21 02:54 EST    4.65   5.47   14  325   18  42.1  44.8 1021.1 -9.9 -9.999 -99.9 -99.99 -9.99
2019/11/21 03:00 EST    4.63   5.44   12  330   19  42.1  44.8 1021.0 -9.9 -9.999 -99.9 -99.99 -9.99
2019/11/21 03:06 EST    4.60   5.41   13  330   17  41.9  44.8 1021.1 -9.9 -9.999 -99.9 -99.99 -9.99
2019/11/21 03:12 EST    4.56   5.35   15  325   19  41.9  44.8 1021.0 -9.9 -9.999 -99.9 -99.99 -9.99
2019/11/21 03:18 EST    4.52   5.28   13  328   16  41.9  44.8 1021.1 -9.9 -9.999 -99.9 -99.99 -9.99
2019/11/21 03:24 EST    4.47   5.24   13  329   17  41.9  44.8 1021.1 -9.9 -9.999 -99.9 -99.99 -9.99
2019/11/21 03:30 EST    4.41   5.16   15  327   18  41.9  44.8 1021.2 -9.9 -9.999 -99.9 -99.99 -9.99
2019/11/21 03:36 EST    4.35   5.08   13  322   19  42.1  44.8 1021.3 -9.9 -9.999 -99.9 -99.99 -9.99
2019/11/21 03:42 EST    4.29   4.99   12  332   18  41.9  44.8 1021.2 -9.9 -9.999 -99.9 -99.99 -9.99
2019/11/21 03:48 EST    4.21   4.94   12  321   14  41.9  44.8 1021.1 -9.9 -9.999 -99.9 -99.99 -9.99
2019/11/21 03:54 EST    4.14   4.84   10  326   13  41.7  44.8 1021.2 -9.9 -9.999 -99.9 -99.99 -9.99
2019/11/21 04:00 EST    4.06   4.75   11  324   14  41.7  44.8 1021.2 -9.9 -9.999 -99.9 -99.99 -9.99
2019/11/21 04:06 EST    3.97   4.68    9  329   11  41.9  44.8 1021.5 -9.9 -9.999 -99.9 -99.99 -9.99
2019/11/21 04:12 EST    3.89   4.58   10  321   12  41.7  44.8 1021.6 -9.9 -9.999 -99.9 -99.99 -9.99
2019/11/21 04:18 EST    3.79   4.50    9  319   15  41.9  44.8 1021.6 -9.9 -9.999 -99.9 -99.99 -9.99
2019/11/21 04:24 EST    3.70   4.44   10  318   13  41.9  44.8 1021.6 -9.9 -9.999 -99.9 -99.99 -9.99
2019/11/21 04:30 EST    3.61   4.32   10  318   12  41.7  44.8 1021.5 -9.9 -9.999 -99.9 -99.99 -9.99
2019/11/21 04:36 EST    3.51   4.25    9  325   13  41.7  44.6 1021.5 -9.9 -9.999 -99.9 -99.99 -9.99
2019/11/21 04:42 EST    3.41   4.16    9  324   11  41.5  44.6 1021.5 -9.9 -9.999 -99.9 -99.99 -9.99
2019/11/21 04:48 EST    3.31   4.05   10  322   13  41.4  44.6 1021.5 -9.9 -9.999 -99.9 -99.99 -9.99
2019/11/21 04:54 EST    3.21   3.95    9  322   13  41.5  44.6 1021.5 -9.9 -9.999 -99.9 -99.99 -9.99
2019/11/21 05:00 EST    3.11   3.84   11  323   14  41.7  44.6 1021.6 -9.9 -9.999 -99.9 -99.99 -9.99
2019/11/21 05:06 EST    3.01   3.74    9  326   13  41.9  44.6 1021.7 -9.9 -9.999 -99.9 -99.99 -9.99
2019/11/21 05:12 EST    2.91   3.66    9  322   12  41.7  44.6 1021.8 -9.9 -9.999 -99.9 -99.99 -9.99
2019/11/21 05:18 EST    2.81   3.58    9  318   12  41.9  44.6 1021.8 -9.9 -9.999 -99.9 -99.99 -9.99
2019/11/21 05:24 EST    2.71   3.50    8  317   10  41.9  44.6 1021.8 -9.9 -9.999 -99.9 -99.99 -9.99
2019/11/21 05:30 EST    2.61   3.45    9  317   11  41.9  44.6 1022.0 -9.9 -9.999 -99.9 -99.99 -9.99
2019/11/21 05:36 EST    2.52   3.36   10  319   12  41.9  44.6 1022.1 -9.9 -9.999 -99.9 -99.99 -9.99
2019/11/21 05:42 EST    2.42   3.30   11  315   14  42.1  44.6 1022.3 -9.9 -9.999 -99.9 -99.99 -9.99
2019/11/21 05:48 EST    2.33   3.24   10  310   12  42.1  44.6 1022.3 -9.9 -9.999 -99.9 -99.99 -9.99
2019/11/21 05:54 EST    2.23   3.18   12  309   13  41.9  44.6 1022.4 -9.9 -9.999 -99.9 -99.99 -9.99
2019/11/21 06:00 EST    2.14   3.11   11  307   12  42.1  44.4 1022.4 -9.9 -9.999 -99.9 -99.99 -9.99
2019/11/21 06:06 EST    2.05   3.04   10  309   13  42.1  44.4 1022.6 -9.9 -9.999 -99.9 -99.99 -9.99
2019/11/21 06:12 EST    1.97   2.94   11  305   13  42.1  44.4 1022.5 -9.9 -9.999 -99.9 -99.99 -9.99
2019/11/21 06:18 EST    1.88   2.84   14  296   16  42.1  44.4 1022.6 -9.9 -9.999 -99.9 -99.99 -9.99
2019/11/21 06:24 EST    1.80   2.75   14  296   17  42.3  44.4 1022.8 -9.9 -9.999 -99.9 -99.99 -9.99
2019/11/21 06:30 EST    1.71   2.65   13  304   15  42.3  44.4 1022.9 -9.9 -9.999 -99.9 -99.99 -9.99
2019/11/21 06:36 EST    1.63   2.55   14  302   16  42.1  44.4 1023.0 -9.9 -9.999 -99.9 -99.99 -9.99
2019/11/21 06:42 EST    1.55   2.46   12  310   15  42.1  44.4 1023.0 -9.9 -9.999 -99.9 -99.99 -9.99
2019/11/21 06:48 EST    1.47   2.38   12  310   15  42.1  44.4 1023.0 -9.9 -9.999 -99.9 -99.99 -9.99
2019/11/21 06:54 EST    1.40   2.30   12  306   13  41.9  44.4 1023.0 -9.9 -9.999 -99.9 -99.99 -9.99
2019/11/21 07:00 EST    1.32   2.23   10  315   13  42.1  44.4 1023.0 -9.9 -9.999 -99.9 -99.99 -9.99
2019/11/21 07:06 EST    1.25   2.18   10  316   12  41.9  44.2 1023.0 -9.9 -9.999 -99.9 -99.99 -9.99
2019/11/21 07:12 EST    1.18   2.09    9  315   12  41.9  44.2 1023.0 -9.9 -9.999 -99.9 -99.99 -9.99
2019/11/21 07:18 EST    1.11   2.04    9  326   12  42.1  44.2 1023.0 -9.9 -9.999 -99.9 -99.99 -9.99
2019/11/21 07:24 EST    1.04   1.97    9  319   10  41.9  44.2 1022.9 -9.9 -9.999 -99.9 -99.99 -9.99
2019/11/21 07:30 EST    0.97   1.89    9  315   10  42.1  44.2 1022.9 -9.9 -9.999 -99.9 -99.99 -9.99
2019/11/21 07:36 EST    0.90   1.83    9  318   11  42.3  44.2 1022.9 -9.9 -9.999 -99.9 -99.99 -9.99
2019/11/21 07:42 EST    0.84   1.77   11  313   12  42.3  44.2 1023.0 -9.9 -9.999 -99.9 -99.99 -9.99
2019/11/21 07:48 EST    0.78   1.72    9  319   12  42.4  44.2 1023.0 -9.9 -9.999 -99.9 -99.99 -9.99
2019/11/21 07:54 EST    0.73   1.65   10  314   12  42.4  44.2 1023.0 -9.9 -9.999 -99.9 -99.99 -9.99
2019/11/21 08:00 EST    0.67   1.62    9  322   12  42.6  44.2 1023.2 -9.9 -9.999 -99.9 -99.99 -9.99
2019/11/21 08:06 EST    0.62   1.55    9  327   12  42.6  44.2 1023.2 -9.9 -9.999 -99.9 -99.99 -9.99
2019/11/21 08:12 EST    0.57   1.52    8  319   11  42.8  44.2 1023.2 -9.9 -9.999 -99.9 -99.99 -9.99
2019/11/21 08:18 EST    0.53   1.49    7  328   10  43.0  44.2 1023.2 -9.9 -9.999 -99.9 -99.99 -9.99
2019/11/21 08:24 EST    0.50   1.45    6  336   11  43.0  44.2 1023.2 -9.9 -9.999 -99.9 -99.99 -9.99
2019/11/21 08:30 EST    0.46   1.44    5  333    8  43.2  44.2 1023.2 -9.9 -9.999 -99.9 -99.99 -9.99
2019/11/21 08:36 EST    0.44   1.41    6  326    8  43.5  44.1 1023.3 -9.9 -9.999 -99.9 -99.99 -9.99
2019/11/21 08:42 EST    0.41   1.41    7  323    8  43.7  44.2 1023.3 -9.9 -9.999 -99.9 -99.99 -9.99
2019/11/21 08:48 EST    0.40   1.39    8  317   10  43.7  44.2 1023.3 -9.9 -9.999 -99.9 -99.99 -9.99
2019/11/21 08:54 EST    0.39   1.40    8  323   10  43.2  44.2 1023.3 -9.9 -9.999 -99.9 -99.99 -9.99
2019/11/21 09:00 EST    0.39   1.39    8  325   11  43.2  44.2 1023.3 -9.9 -9.999 -99.9 -99.99 -9.99
2019/11/21 09:06 EST    0.39   1.41    5  341   11  43.3  44.2 1023.2 -9.9 -9.999 -99.9 -99.99 -9.99
2019/11/21 09:12 EST    0.40   1.44    7  334   10  44.1  44.2 1023.2 -9.9 -9.999 -99.9 -99.99 -9.99
2019/11/21 09:18 EST    0.42   1.48    8  341   13  43.9  44.2 1023.1 -9.9 -9.999 -99.9 -99.99 -9.99
2019/11/21 09:24 EST    0.44   1.49    9  344   12  44.2  44.2 1023.0 -9.9 -9.999 -99.9 -99.99 -9.99
2019/11/21 09:30 EST    0.48   1.54    9  353   13  44.2  44.2 1023.0 -9.9 -9.999 -99.9 -99.99 -9.99
2019/11/21 09:36 EST    0.52   1.61    8  351   11  44.4  44.2 1023.0 -9.9 -9.999 -99.9 -99.99 -9.99
2019/11/21 09:42 EST    0.56   1.68    9  331   11  45.1  44.2 1023.1 -9.9 -9.999 -99.9 -99.99 -9.99
2019/11/21 09:48 EST    0.62   1.73    8  332   11  45.0  44.2 1023.2 -9.9 -9.999 -99.9 -99.99 -9.99
2019/11/21 09:54 EST    0.68   1.78    8  318   12  45.0  44.2 1023.4 -9.9 -9.999 -99.9 -99.99 -9.99
2019/11/21 10:00 EST    0.75   1.87    8  318   12  44.8  44.2 1023.3 -9.9 -9.999 -99.9 -99.99 -9.99
2019/11/21 10:06 EST    0.82   1.95    8  341   13  45.3  44.2 1023.3 -9.9 -9.999 -99.9 -99.99 -9.99
2019/11/21 10:12 EST    0.91   2.03    8  338   10  45.5  44.2 1023.1 -9.9 -9.999 -99.9 -99.99 -9.99
2019/11/21 10:18 EST    0.99   2.11    8  336   11  45.3  44.2 1023.2 -9.9 -9.999 -99.9 -99.99 -9.99
2019/11/21 10:24 EST    1.09   2.20    9  330   11  45.7  44.2 1023.3 -9.9 -9.999 -99.9 -99.99 -9.99
2019/11/21 10:30 EST    1.19   2.28    6  343   11  45.7  44.2 1023.2 -9.9 -9.999 -99.9 -99.99 -9.99
2019/11/21 10:36 EST    1.29   2.38    9  307   11  46.0  44.2 1023.2 -9.9 -9.999 -99.9 -99.99 -9.99
2019/11/21 10:42 EST    1.40   2.49    7  326   11  45.7  44.2 1023.1 -9.9 -9.999 -99.9 -99.99 -9.99
2019/11/21 10:48 EST    1.51   2.62    6  325   10  45.9  44.4 1023.0 -9.9 -9.999 -99.9 -99.99 -9.99
2019/11/21 10:54 EST    1.63   2.69    7  298    8  46.4  44.4 1022.9 -9.9 -9.999 -99.9 -99.99 -9.99
2019/11/21 11:00 EST    1.74   2.82    7  310    9  46.0  44.6 1022.7 -9.9 -9.999 -99.9 -99.99 -9.99
2019/11/21 11:06 EST    1.86   2.95    6  292    9  46.0  44.6 1022.7 -9.9 -9.999 -99.9 -99.99 -9.99
2019/11/21 11:12 EST    1.99   3.08    4  280    6  46.4  44.6 1022.6 -9.9 -9.999 -99.9 -99.99 -9.99
2019/11/21 11:18 EST    2.11   3.14    6  297    7  46.8  44.6 1022.5 -9.9 -9.999 -99.9 -99.99 -9.99
2019/11/21 11:24 EST    2.24   3.28    6  282    7  46.0  44.8 1022.5 -9.9 -9.999 -99.9 -99.99 -9.99
2019/11/21 11:30 EST    2.36   3.40    6  291    8  46.6  44.6 1022.2 -9.9 -9.999 -99.9 -99.99 -9.99
2019/11/21 11:36 EST    2.49   3.46    6  285    7  46.6  44.6 1022.2 -9.9 -9.999 -99.9 -99.99 -9.99
2019/11/21 11:42 EST    2.61   3.57    5  280    7  46.8  44.6 1022.1 -9.9 -9.999 -99.9 -99.99 -9.99
2019/11/21 11:48 EST    2.74   3.68    3  281    5  47.1  44.6 1021.9 -9.9 -9.999 -99.9 -99.99 -9.99
2019/11/21 11:54 EST    2.86   3.77    3  289    5  47.3  44.6 1021.8 -9.9 -9.999 -99.9 -99.99 -9.99
2019/11/21 12:00 EST    2.98   3.85    5  272    7  47.7  44.6 1021.8 -9.9 -9.999 -99.9 -99.99 -9.99
2019/11/21 12:06 EST    3.10   3.97    5  254    6  47.1  44.6 1021.8 -9.9 -9.999 -99.9 -99.99 -9.99
2019/11/21 12:12 EST    3.22   4.07    3  272    5  46.6  44.8 1021.8 -9.9 -9.999 -99.9 -99.99 -9.99
2019/11/21 12:18 EST    3.34   4.19    3  285    5  47.5  44.8 1021.7 -9.9 -9.999 -99.9 -99.99 -9.99
2019/11/21 12:24 EST    3.45   4.27    3  273    4  47.8  44.8 1021.5 -9.9 -9.999 -99.9 -99.99 -9.99
2019/11/21 12:30 EST    3.56   4.39    4  267    5  48.2  44.8 1021.4 -9.9 -9.999 -99.9 -99.99 -9.99
2019/11/21 12:36 EST    3.67   4.50    3  268    5  48.0  45.0 1021.3 -9.9 -9.999 -99.9 -99.99 -9.99
2019/11/21 12:42 EST    3.77   4.60    4  276    5  47.7  45.0 1021.3 -9.9 -9.999 -99.9 -99.99 -9.99
2019/11/21 12:48 EST    3.87   4.69    3  272    4  48.0  45.0 1021.1 -9.9 -9.999 -99.9 -99.99 -9.99
2019/11/21 12:54 EST    3.97   4.80    4  254    6  48.0  45.0 1021.0 -9.9 -9.999 -99.9 -99.99 -9.99
2019/11/21 13:00 EST    4.07   4.89    3  254    5  47.5  45.0 1021.0 -9.9 -9.999 -99.9 -99.99 -9.99
2019/11/21 13:06 EST    4.16   4.97    2  270    5  47.8  45.0 1020.9 -9.9 -9.999 -99.9 -99.99 -9.99
2019/11/21 13:12 EST    4.24   5.09    3  286    4  48.7  45.0 1020.8 -9.9 -9.999 -99.9 -99.99 -9.99
2019/11/21 13:18 EST    4.32   5.17    3  282    4  49.6  45.0 1020.8 -9.9 -9.999 -99.9 -99.99 -9.99
2019/11/21 13:24 EST    4.40   5.23    3  274    4  50.2  45.1 1020.7 -9.9 -9.999 -99.9 -99.99 -9.99
2019/11/21 13:30 EST    4.48   5.33    4  268    5  50.4  45.1 1020.8 -9.9 -9.999 -99.9 -99.99 -9.99
2019/11/21 13:36 EST    4.54   5.42    5  272    6  50.2  45.1 1020.8 -9.9 -9.999 -99.9 -99.99 -9.99
2019/11/21 13:42 EST    4.61   5.47    5  271    7  50.5  45.1 1020.8 -9.9 -9.999 -99.9 -99.99 -9.99
2019/11/21 13:48 EST    4.67   5.51    5  268    8  50.5  45.1 1020.6 -9.9 -9.999 -99.9 -99.99 -9.99
2019/11/21 13:54 EST    4.72   5.61    5  270    7  50.7  45.0 1020.6 -9.9 -9.999 -99.9 -99.99 -9.99
2019/11/21 14:00 EST    4.77   5.64    5  273    6  50.7  45.0 1020.6 -9.9 -9.999 -99.9 -99.99 -9.99
2019/11/21 14:06 EST    4.82   5.68    5  283    6  51.1  45.0 1020.6 -9.9 -9.999 -99.9 -99.99 -9.99
2019/11/21 14:12 EST    4.86   5.74    6  283    7  51.6  45.0 1020.4 -9.9 -9.999 -99.9 -99.99 -9.99
2019/11/21 14:18 EST    4.89   5.78    6  282    7  51.3  45.0 1020.4 -9.9 -9.999 -99.9 -99.99 -9.99
2019/11/21 14:24 EST    4.92   5.78    8  286    8  51.6  45.0 1020.3 -9.9 -9.999 -99.9 -99.99 -9.99
2019/11/21 14:30 EST    4.94   5.84    7  286    8  51.4  45.0 1020.2 -9.9 -9.999 -99.9 -99.99 -9.99
2019/11/21 14:36 EST    4.96   5.85    6  286    7  51.6  45.1 1020.2 -9.9 -9.999 -99.9 -99.99 -9.99
2019/11/21 14:42 EST    4.97   5.85    7  283    7  51.4  45.1 1020.1 -9.9 -9.999 -99.9 -99.99 -9.99
2019/11/21 14:48 EST    4.97   5.87    6  276    7  50.7  45.1 1020.2 -9.9 -9.999 -99.9 -99.99 -9.99
2019/11/21 14:54 EST    4.97   5.88    6  284    7  50.5  45.1 1020.1 -9.9 -9.999 -99.9 -99.99 -9.99
2019/11/21 15:00 EST    4.96   5.90    6  285    7  50.2  45.1 1020.1 -9.9 -9.999 -99.9 -99.99 -9.99
2019/11/21 15:06 EST    4.94   5.87    5  288    7  50.4  45.3 1020.2 -9.9 -9.999 -99.9 -99.99 -9.99
2019/11/21 15:12 EST    4.92   5.87    5  285    6  50.4  45.3 1020.1 -9.9 -9.999 -99.9 -99.99 -9.99
2019/11/21 15:18 EST    4.89   5.85    5  276    5  50.2  45.3 1020.2 -9.9 -9.999 -99.9 -99.99 -9.99
2019/11/21 15:24 EST    4.86   5.81    3  262    5  50.2  45.3 1020.3 -9.9 -9.999 -99.9 -99.99 -9.99
2019/11/21 15:30 EST    4.82   5.78    4  261    4  50.0  45.3 1020.3 -9.9 -9.999 -99.9 -99.99 -9.99
2019/11/21 15:36 EST    4.77   5.71    3  247    4  50.0  45.3 1020.2 -9.9 -9.999 -99.9 -99.99 -9.99
2019/11/21 15:42 EST    4.71   5.66    3  247    3  50.0  45.5 1020.0 -9.9 -9.999 -99.9 -99.99 -9.99
2019/11/21 15:48 EST    4.65   5.64    3  263    3  50.0  45.7 1019.9 -9.9 -9.999 -99.9 -99.99 -9.99
2019/11/21 15:54 EST    4.59   5.58    4  256    4  50.4  45.5 1019.9 -9.9 -9.999 -99.9 -99.99 -9.99
2019/11/21 16:00 EST    4.52   5.51    4  240    4  50.5  45.5 1019.8 -9.9 -9.999 -99.9 -99.99 -9.99
2019/11/21 16:06 EST    4.44   5.48    3  216    4  50.4  45.5 1019.8 -9.9 -9.999 -99.9 -99.99 -9.99
2019/11/21 16:12 EST    4.36   5.44    5  227    6  49.8  45.7 1019.8 -9.9 -9.999 -99.9 -99.99 -9.99
2019/11/21 16:18 EST    4.28   5.37    5  225    6  49.8  45.7 1019.7 -9.9 -9.999 -99.9 -99.99 -9.99
2019/11/21 16:24 EST    4.19   5.31    7  238    8  50.0  45.7 1019.7 -9.9 -9.999 -99.9 -99.99 -9.99
2019/11/21 16:30 EST    4.09   5.27    7  219    8  50.0  45.7 1019.8 -9.9 -9.999 -99.9 -99.99 -9.99
2019/11/21 16:36 EST    4.00   5.19    5  194    7  50.0  45.5 1019.8 -9.9 -9.999 -99.9 -99.99 -9.99
2019/11/21 16:42 EST    3.90   5.10    7  208    7  49.5  45.5 1019.5 -9.9 -9.999 -99.9 -99.99 -9.99
2019/11/21 16:48 EST    3.80   5.05    8  219    9  49.8  45.5 1019.8 -9.9 -9.999 -99.9 -99.99 -9.99
2019/11/21 16:54 EST    3.69   4.94    8  214    9  49.8  45.5 1020.0 -9.9 -9.999 -99.9 -99.99 -9.99
2019/11/21 17:00 EST    3.59   4.85    7  204    7  50.5  45.5 1019.8 -9.9 -9.999 -99.9 -99.99 -9.99
2019/11/21 17:06 EST    3.48   4.77    7  197    7  49.6  45.5 1019.7 -9.9 -9.999 -99.9 -99.99 -9.99
2019/11/21 17:12 EST    3.37   4.68    6  208    7  49.3  45.5 1019.7 -9.9 -9.999 -99.9 -99.99 -9.99
2019/11/21 17:18 EST    3.26   4.56    6  210    7  49.8  45.5 1019.7 -9.9 -9.999 -99.9 -99.99 -9.99
2019/11/21 17:24 EST    3.15   4.47    6  198    7  49.1  45.5 1019.6 -9.9 -9.999 -99.9 -99.99 -9.99
2019/11/21 17:30 EST    3.04   4.38    5  195    6  49.3  45.5 1019.6 -9.9 -9.999 -99.9 -99.99 -9.99
2019/11/21 17:36 EST    2.93   4.27    6  193    6  47.7  45.5 1019.6 -9.9 -9.999 -99.9 -99.99 -9.99
2019/11/21 17:42 EST    2.83   4.15    5  201    6  47.7  45.5 1019.6 -9.9 -9.999 -99.9 -99.99 -9.99
2019/11/21 17:48 EST    2.72   4.05    6  205    6  48.0  45.5 1019.7 -9.9 -9.999 -99.9 -99.99 -9.99
2019/11/21 17:54 EST    2.61   3.96    6  193    6  47.7  45.5 1019.7 -9.9 -9.999 -99.9 -99.99 -9.99
2019/11/21 18:00 EST    2.50   3.85    6  194    6  47.5  45.5 1019.5 -9.9 -9.999 -99.9 -99.99 -9.99
2019/11/21 18:06 EST    2.40   3.73    6  190    6  47.7  45.5 1019.6 -9.9 -9.999 -99.9 -99.99 -9.99
2019/11/21 18:12 EST    2.30   3.65    6  200    6  47.7  45.5 1019.6 -9.9 -9.999 -99.9 -99.99 -9.99
2019/11/21 18:18 EST    2.19   3.53    6  196    7  48.4  45.5 1019.6 -9.9 -9.999 -99.9 -99.99 -9.99
2019/11/21 18:24 EST    2.09   3.42    7  190    7  47.7  45.5 1019.6 -9.9 -9.999 -99.9 -99.99 -9.99
2019/11/21 18:30 EST    1.99   3.32    6  190    7  47.7  45.5 1019.3 -9.9 -9.999 -99.9 -99.99 -9.99
2019/11/21 18:36 EST    1.89   3.21    7  191    8  47.3  45.5 1019.3 -9.9 -9.999 -99.9 -99.99 -9.99
2019/11/21 18:42 EST    1.80   3.11    8  186    8  47.3  45.5 1019.2 -9.9 -9.999 -99.9 -99.99 -9.99
2019/11/21 18:48 EST    1.70   2.99    7  193    8  47.5  45.5 1019.1 -9.9 -9.999 -99.9 -99.99 -9.99
2019/11/21 18:54 EST    1.60   2.88    7  202    8  47.7  45.5 1019.1 -9.9 -9.999 -99.9 -99.99 -9.99
2019/11/21 19:00 EST    1.51   2.79    7  204    8  48.0  45.5 1019.2 -9.9 -9.999 -99.9 -99.99 -9.99
2019/11/21 19:06 EST    1.42   2.65    6  200    7  48.4  45.5 1019.3 -9.9 -9.999 -99.9 -99.99 -9.99
2019/11/21 19:12 EST    1.32   2.54    6  198    7  47.8  45.5 1019.4 -9.9 -9.999 -99.9 -99.99 -9.99
2019/11/21 19:18 EST    1.23   2.42    7  193    7  47.7  45.5 1019.4 -9.9 -9.999 -99.9 -99.99 -9.99
2019/11/21 19:24 EST    1.14   2.32    7  194    7  47.5  45.3 1019.2 -9.9 -9.999 -99.9 -99.99 -9.99
2019/11/21 19:30 EST    1.05   2.21    7  198    7  48.0  45.3 1019.1 -9.9 -9.999 -99.9 -99.99 -9.99
2019/11/21 19:36 EST    0.96   2.11    6  195    7  48.4  45.3 1019.1 -9.9 -9.999 -99.9 -99.99 -9.99
2019/11/21 19:42 EST    0.88   2.00    5  198    7  47.8  45.3 1019.2 -9.9 -9.999 -99.9 -99.99 -9.99
2019/11/21 19:48 EST    0.79   1.91    7  194    8  47.5  45.3 1019.2 -9.9 -9.999 -99.9 -99.99 -9.99
2019/11/21 19:54 EST    0.71   1.82    8  189    8  47.3  45.3 1018.8 -9.9 -9.999 -99.9 -99.99 -9.99
2019/11/21 20:00 EST    0.63   1.73    7  194    8  47.3  45.3 1018.8 -9.9 -9.999 -99.9 -99.99 -9.99
2019/11/21 20:06 EST    0.55   1.68    7  196    8  47.3  45.3 1018.8 -9.9 -9.999 -99.9 -99.99 -9.99
2019/11/21 20:12 EST    0.47   1.60    7  198    8  47.3  45.3 1018.7 -9.9 -9.999 -99.9 -99.99 -9.99
2019/11/21 20:18 EST    0.39   1.53    6  203    7  47.5  45.3 1018.7 -9.9 -9.999 -99.9 -99.99 -9.99
2019/11/21 20:24 EST    0.32   1.46    8  208    8  47.3  45.3 1018.6 -9.9 -9.999 -99.9 -99.99 -9.99
2019/11/21 20:30 EST    0.25   1.41    8  204    9  47.3  45.3 1018.6 -9.9 -9.999 -99.9 -99.99 -9.99
2019/11/21 20:36 EST    0.19   1.33   10  210   11  47.3  45.3 1018.4 -9.9 -9.999 -99.9 -99.99 -9.99
2019/11/21 20:42 EST    0.13   1.27   11  215   12  47.5  45.3 1018.4 -9.9 -9.999 -99.9 -99.99 -9.99
2019/11/21 20:48 EST    0.07   1.22   11  211   13  47.7  45.3 1018.3 -9.9 -9.999 -99.9 -99.99 -9.99
2019/11/21 20:54 EST    0.02   1.15   11  218   13  47.7  45.3 1018.1 -9.9 -9.999 -99.9 -99.99 -9.99
2019/11/21 21:00 EST   -0.03   1.11   11  214   13  47.7  45.3 1018.1 -9.9 -9.999 -99.9 -99.99 -9.99
2019/11/21 21:06 EST   -0.07   1.08   11  216   12  47.8  45.3 1017.9 -9.9 -9.999 -99.9 -99.99 -9.99
2019/11/21 21:12 EST   -0.10   1.04   11  220   12  47.7  45.3 1017.9 -9.9 -9.999 -99.9 -99.99 -9.99
2019/11/21 21:18 EST   -0.13   1.03   11  221   12  47.7  45.3 1017.9 -9.9 -9.999 -99.9 -99.99 -9.99
2019/11/21 21:24 EST   -0.15   1.04    8  210   11  47.8  45.3 1017.8 -9.9 -9.999 -99.9 -99.99 -9.99
2019/11/21 21:30 EST   -0.16   1.06    9  206   11  47.7  45.3 1017.5 -9.9 -9.999 -99.9 -99.99 -9.99
2019/11/21 21:36 EST   -0.17   1.06    9  209   11  47.8  45.3 1017.4 -9.9 -9.999 -99.9 -99.99 -9.99
2019/11/21 21:42 EST   -0.16   1.10    9  224   10  48.0  45.3 1017.3 -9.9 -9.999 -99.9 -99.99 -9.99
2019/11/21 21:48 EST   -0.15   1.15    9  225   10  47.8  45.3 1017.5 -9.9 -9.999 -99.9 -99.99 -9.99
2019/11/21 21:54 EST   -0.14   1.17   11  230   12  47.7  45.3 1017.5 -9.9 -9.999 -99.9 -99.99 -9.99
2019/11/21 22:00 EST   -0.11   1.21   10  232   14  47.8  45.3 1017.5 -9.9 -9.999 -99.9 -99.99 -9.99
2019/11/21 22:06 EST   -0.08   1.27   11  226   13  47.8  45.3 1017.5 -9.9 -9.999 -99.9 -99.99 -9.99
2019/11/21 22:12 EST   -0.03   1.33   11  213   13  47.8  45.3 1017.3 -9.9 -9.999 -99.9 -99.99 -9.99
2019/11/21 22:18 EST    0.02   1.33   11  213   14  48.0  45.3 1017.0 -9.9 -9.999 -99.9 -99.99 -9.99
2019/11/21 22:24 EST    0.07   1.41   11  208   12  47.8  45.3 1016.9 -9.9 -9.999 -99.9 -99.99 -9.99
2019/11/21 22:30 EST    0.14   1.50   11  206   13  48.0  45.3 1016.7 -9.9 -9.999 -99.9 -99.99 -9.99
2019/11/21 22:36 EST    0.21   1.57   10  201   13  47.8  45.3 1016.5 -9.9 -9.999 -99.9 -99.99 -9.99
2019/11/21 22:42 EST    0.29   1.65   11  188   13  47.8  45.3 1016.2 -9.9 -9.999 -99.9 -99.99 -9.99
2019/11/21 22:48 EST    0.38   1.76   11  194   14  47.8  45.3 1016.0 -9.9 -9.999 -99.9 -99.99 -9.99
2019/11/21 22:54 EST    0.47   1.90   11  212   13  48.0  45.3 1016.1 -9.9 -9.999 -99.9 -99.99 -9.99
2019/11/21 23:00 EST    0.57   2.03   10  217   12  48.0  45.3 1016.3 -9.9 -9.999 -99.9 -99.99 -9.99
2019/11/21 23:06 EST    0.68   2.16   10  223   12  47.8  45.3 1016.2 -9.9 -9.999 -99.9 -99.99 -9.99
2019/11/21 23:12 EST    0.79   2.27    9  211   12  47.7  45.1 1016.2 -9.9 -9.999 -99.9 -99.99 -9.99
2019/11/21 23:18 EST    0.90   2.41    8  207   11  47.8  45.1 1015.8 -9.9 -9.999 -99.9 -99.99 -9.99
2019/11/21 23:24 EST    1.02   2.54    8  207    9  47.8  45.1 1015.7 -9.9 -9.999 -99.9 -99.99 -9.99
2019/11/21 23:30 EST    1.14   2.68    8  210   10  47.7  45.1 1015.8 -9.9 -9.999 -99.9 -99.99 -9.99
2019/11/21 23:36 EST    1.27   2.81    9  217   10  47.7  45.1 1015.9 -9.9 -9.999 -99.9 -99.99 -9.99
2019/11/21 23:42 EST    1.39   2.94   10  226   12  47.8  45.0 1016.0 -9.9 -9.999 -99.9 -99.99 -9.99
2019/11/21 23:48 EST    1.52   3.07    9  233   12  48.2  45.1 1016.3 -9.9 -9.999 -99.9 -99.99 -9.99
2019/11/21 23:54 EST    1.66   3.21    9  233   11  48.2  45.0 1016.4 -9.9 -9.999 -99.9 -99.99 -9.99
2019/11/22 00:00 EST    1.79   3.34    8  222   10  48.0  45.0 1016.4 -9.9 -9.999 -99.9 -99.99 -9.99
2019/11/22 00:06 EST    1.92   3.49   10  227   12  47.8  45.0 1016.1 -9.9 -9.999 -99.9 -99.99 -9.99
2019/11/22 00:12 EST    2.06   3.63   11  223   14  48.2  45.0 1016.0 -9.9 -9.999 -99.9 -99.99 -9.99
2019/11/22 00:18 EST    2.19   3.77   12  218   14  48.2  45.0 1016.0 -9.9 -9.999 -99.9 -99.99 -9.99
2019/11/22 00:24 EST    2.33   3.89   11  213   16  48.2  45.0 1015.9 -9.9 -9.999 -99.9 -99.99 -9.99
2019/11/22 00:30 EST    2.46   4.01   11  219   12  48.2  45.0 1015.7 -9.9 -9.999 -99.9 -99.99 -9.99
2019/11/22 00:36 EST    2.59   4.14    9  209   14  48.2  45.0 1015.7 -9.9 -9.999 -99.9 -99.99 -9.99
2019/11/22 00:42 EST    2.73   4.24   10  205   12  48.0  45.0 1015.5 -9.9 -9.999 -99.9 -99.99 -9.99
2019/11/22 00:48 EST    2.86   4.36   10  208   11  48.0  44.8 1015.1 -9.9 -9.999 -99.9 -99.99 -9.99
2019/11/22 00:54 EST    2.98   4.44   11  215   12  47.8  44.8 1015.1 -9.9 -9.999 -99.9 -99.99 -9.99
2019/11/22 01:00 EST    3.11   4.58   10  210   12  48.0  44.8 1015.1 -9.9 -9.999 -99.9 -99.99 -9.99
2019/11/22 01:06 EST    3.23   4.65   10  215   12  48.0  44.8 1015.1 -9.9 -9.999 -99.9 -99.99 -9.99
2019/11/22 01:12 EST    3.36   4.74    9  212   12  47.8  44.8 1014.9 -9.9 -9.999 -99.9 -99.99 -9.99
2019/11/22 01:18 EST    3.48   4.87    7  213    8  47.8  44.8 1014.9 -9.9 -9.999 -99.9 -99.99 -9.99
2019/11/22 01:24 EST    3.59   4.96   10  221   11  47.7  44.8 1015.0 -9.9 -9.999 -99.9 -99.99 -9.99
2019/11/22 01:30 EST    3.70   5.07    9  218   14  47.8  44.8 1015.1 -9.9 -9.999 -99.9 -99.99 -9.99
2019/11/22 01:36 EST    3.81   5.17    9  221   11  47.8  44.6 1014.9 -9.9 -9.999 -99.9 -99.99 -9.99
2019/11/22 01:42 EST    3.92   5.28   10  223   12  47.7  44.6 1014.9 -9.9 -9.999 -99.9 -99.99 -9.99
2019/11/22 01:48 EST    4.02   5.34   10  222   12  47.7  44.6 1015.0 -9.9 -9.999 -99.9 -99.99 -9.99
2019/11/22 01:54 EST    4.12   5.44   11  216   14  47.7  44.6 1014.9 -9.9 -9.999 -99.9 -99.99 -9.99
2019/11/22 02:00 EST    4.22   5.52   11  214   12  47.7  44.6 1014.7 -9.9 -9.999 -99.9 -99.99 -9.99
2019/11/22 02:06 EST    4.31   5.60   11  210   13  47.7  44.6 1014.7 -9.9 -9.999 -99.9 -99.99 -9.99
2019/11/22 02:12 EST    4.40   5.63    9  207   12  47.7  44.6 1014.4 -9.9 -9.999 -99.9 -99.99 -9.99
2019/11/22 02:18 EST    4.48   5.72   11  206   14  47.5  44.6 1014.1 -9.9 -9.999 -99.9 -99.99 -9.99
2019/11/22 02:24 EST    4.56   5.80   11  203   13  47.5  44.6 1014.1 -9.9 -9.999 -99.9 -99.99 -9.99
2019/11/22 02:30 EST    4.63   5.84   10  207   15  47.3  44.6 1014.0 -9.9 -9.999 -99.9 -99.99 -9.99
2019/11/22 02:36 EST    4.70   5.85   10  200   13  47.1  44.6 1013.9 -9.9 -9.999 -99.9 -99.99 -9.99
2019/11/22 02:42 EST    4.76   5.93   10  203   12  47.1  44.6 1013.5 -9.9 -9.999 -99.9 -99.99 -9.99
2019/11/22 02:48 EST    4.81   6.00   10  207   12  47.1  44.6 1013.6 -9.9 -9.999 -99.9 -99.99 -9.99
2019/11/22 02:54 EST    4.86   6.02   11  208   13  47.1  44.6 1013.5 -9.9 -9.999 -99.9 -99.99 -9.99
2019/11/22 03:00 EST    4.91   6.09   10  205   13  46.9  44.6 1013.4 -9.9 -9.999 -99.9 -99.99 -9.99
2019/11/22 03:06 EST    4.95   6.12   10  201   12  46.9  44.6 1013.3 -9.9 -9.999 -99.9 -99.99 -9.99
2019/11/22 03:12 EST    4.98   6.16    9  206   11  46.9  44.6 1013.2 -9.9 -9.999 -99.9 -99.99 -9.99
2019/11/22 03:18 EST    5.00   6.22    8  207   12  46.6  44.6 1013.2 -9.9 -9.999 -99.9 -99.99 -9.99
2019/11/22 03:24 EST    5.02   6.26    9  208   10  46.8  44.6 1012.9 -9.9 -9.999 -99.9 -99.99 -9.99
2019/11/22 03:30 EST    5.03   6.23   10  215   11  46.8  44.6 1012.9 -9.9 -9.999 -99.9 -99.99 -9.99
2019/11/22 03:36 EST    5.03   6.22    9  207   11  46.8  44.8 1012.8 -9.9 -9.999 -99.9 -99.99 -9.99
2019/11/22 03:42 EST    5.03   6.24    9  211   11  46.8  44.8 1012.8 -9.9 -9.999 -99.9 -99.99 -9.99
2019/11/22 03:48 EST    5.02   6.19    8  206   10  46.8  44.8 1012.8 -9.9 -9.999 -99.9 -99.99 -9.99
2019/11/22 03:54 EST    5.00   6.14    9  202   10  46.8  44.8 1012.5 -9.9 -9.999 -99.9 -99.99 -9.99
2019/11/22 04:00 EST    4.98   6.11    8  211   10  46.8  44.8 1012.4 -9.9 -9.999 -99.9 -99.99 -9.99
2019/11/22 04:06 EST    4.95   6.07    9  215   10  46.8  44.8 1012.4 -9.9 -9.999 -99.9 -99.99 -9.99
2019/11/22 04:12 EST    4.91   6.01    9  219   10  46.9  44.8 1012.5 -9.9 -9.999 -99.9 -99.99 -9.99
2019/11/22 04:18 EST    4.86   5.95    8  221    9  47.1  44.8 1012.3 -9.9 -9.999 -99.9 -99.99 -9.99
2019/11/22 04:24 EST    4.81   5.89    7  228    9  47.1  44.8 1012.3 -9.9 -9.999 -99.9 -99.99 -9.99
2019/11/22 04:30 EST    4.75   5.85    7  229    8  47.1  44.8 1012.3 -9.9 -9.999 -99.9 -99.99 -9.99
2019/11/22 04:36 EST    4.69   5.77    8  223    9  47.1  44.8 1012.2 -9.9 -9.999 -99.9 -99.99 -9.99
2019/11/22 04:42 EST    4.62   5.71    8  221    9  47.1  44.8 1012.2 -9.9 -9.999 -99.9 -99.99 -9.99
2019/11/22 04:48 EST    4.55   5.62    8  228    9  47.1  44.8 1012.0 -9.9 -9.999 -99.9 -99.99 -9.99
2019/11/22 04:54 EST    4.47   5.53    7  224    9  47.1  44.8 1012.0 -9.9 -9.999 -99.9 -99.99 -9.99
2019/11/22 05:00 EST    4.38   5.45    7  235    8  47.1  45.0 1012.0 -9.9 -9.999 -99.9 -99.99 -9.99
2019/11/22 05:06 EST    4.30   5.39    7  233    9  46.9  45.0 1012.3 -9.9 -9.999 -99.9 -99.99 -9.99
2019/11/22 05:12 EST    4.20   5.28    7  235    9  46.9  45.0 1012.3 -9.9 -9.999 -99.9 -99.99 -9.99
2019/11/22 05:18 EST    4.11   5.19    7  231    8  47.1  44.8 1012.2 -9.9 -9.999 -99.9 -99.99 -9.99
2019/11/22 05:24 EST    4.01   5.10    7  229    8  46.9  45.0 1011.9 -9.9 -9.999 -99.9 -99.99 -9.99
2019/11/22 05:30 EST    3.91   5.01    6  222    8  47.1  45.0 1011.8 -9.9 -9.999 -99.9 -99.99 -9.99
2019/11/22 05:36 EST    3.81   4.92    6  221    8  46.9  45.0 1011.6 -9.9 -9.999 -99.9 -99.99 -9.99
2019/11/22 05:42 EST    3.70   4.82    6  224    7  46.9  45.0 1011.4 -9.9 -9.999 -99.9 -99.99 -9.99
2019/11/22 05:48 EST    3.60   4.69    7  222    7  46.9  45.0 1011.3 -9.9 -9.999 -99.9 -99.99 -9.99
2019/11/22 05:54 EST    3.49   4.58    7  219    8  46.9  45.0 1011.4 -9.9 -9.999 -99.9 -99.99 -9.99
2019/11/22 06:00 EST    3.38   4.49    8  211    9  46.8  45.0 1011.2 -9.9 -9.999 -99.9 -99.99 -9.99
2019/11/22 06:06 EST    3.27   4.36    9  216   10  46.8  45.0 1011.0 -9.9 -9.999 -99.9 -99.99 -9.99
2019/11/22 06:12 EST    3.16   4.26    9  220   10  46.8  45.0 1010.9 -9.9 -9.999 -99.9 -99.99 -9.99
2019/11/22 06:18 EST    3.06   4.12   10  222   11  46.8  45.0 1011.1 -9.9 -9.999 -99.9 -99.99 -9.99
2019/11/22 06:24 EST    2.95   4.06    9  223   11  46.6  45.0 1011.1 -9.9 -9.999 -99.9 -99.99 -9.99
2019/11/22 06:30 EST    2.84   3.92    7  220    9  46.6  45.0 1011.2 -9.9 -9.999 -99.9 -99.99 -9.99
2019/11/22 06:36 EST    2.73   3.80    8  225    9  46.6  45.0 1011.1 -9.9 -9.999 -99.9 -99.99 -9.99
2019/11/22 06:42 EST    2.62   3.67    7  225    9  46.6  45.0 1011.1 -9.9 -9.999 -99.9 -99.99 -9.99
2019/11/22 06:48 EST    2.51   3.60    7  223    8  46.4  45.0 1011.0 -9.9 -9.999 -99.9 -99.99 -9.99
2019/11/22 06:54 EST    2.41   3.46    7  223    9  46.4  45.0 1010.9 -9.9 -9.999 -99.9 -99.99 -9.99
2019/11/22 07:00 EST    2.30   3.31    7  217    8  46.4  45.0 1010.9 -9.9 -9.999 -99.9 -99.99 -9.99
2019/11/22 07:06 EST    2.20   3.24    6  210    7  46.4  45.0 1010.8 -9.9 -9.999 -99.9 -99.99 -9.99
2019/11/22 07:12 EST    2.09   3.13    8  208    9  46.4  44.8 1010.4 -9.9 -9.999 -99.9 -99.99 -9.99
2019/11/22 07:18 EST    1.99   2.99    8  221    9  46.4  44.8 1010.5 -9.9 -9.999 -99.9 -99.99 -9.99
2019/11/22 07:24 EST    1.89   2.92    8  233    9  46.4  44.8 1010.5 -9.9 -9.999 -99.9 -99.99 -9.99
2019/11/22 07:30 EST    1.78   2.83   10  234   12  46.8  45.0 1010.7 -9.9 -9.999 -99.9 -99.99 -9.99
2019/11/22 07:36 EST    1.68   2.74    9  235   13  47.1  45.0 1010.8 -9.9 -9.999 -99.9 -99.99 -9.99
2019/11/22 07:42 EST    1.58   2.62   12  243   15  47.5  45.0 1010.4 -9.9 -9.999 -99.9 -99.99 -9.99
2019/11/22 07:48 EST    1.48   2.54   11  239   16  47.5  45.0 1010.4 -9.9 -9.999 -99.9 -99.99 -9.99
2019/11/22 07:54 EST    1.38 -99.99 -999 -999 -999 -99.9 -99.9 -999.9 -9.9 -9.999 -99.9 -99.99 -9.99
2019/11/22 08:00 EST    1.29 -99.99 -999 -999 -999 -99.9 -99.9 -999.9 -9.9 -9.999 -99.9 -99.99 -9.99